<?xml version="1.0" encoding="UTF-8" standalone="no" ?>
<gpx xmlns="http://www.topografix.com/GPX/1/1" xmlns:xsi="http://www.w3.org/2001/XMLSchema-instance" xsi:schemaLocation="http://www.topografix.com/GPX/1/1 http://www.topografix.com/GPX/1/1/gpx.xsd" version="1.1" creator="VisuGPX - https://www.visugpx.com">
  <metadata>
    <name>Saint régis du coin</name>
    <desc><![CDATA[Montée à saint régis du coin de saint marcel les annonay]]></desc>
  </metadata>
  <trk>
    <name><![CDATA[12712597-Saint régis du coin]]></name>
    <trkseg>
      <trkpt lat="45.2852" lon="4.6309">
        <ele>434</ele>
        <time>2021-03-20T10:04:46Z</time>
      </trkpt>
      <trkpt lat="45.28517" lon="4.63064">
        <ele>434</ele>
        <time>2021-03-20T10:04:50Z</time>
      </trkpt>
      <trkpt lat="45.28512" lon="4.63035">
        <ele>434</ele>
        <time>2021-03-20T10:04:55Z</time>
      </trkpt>
      <trkpt lat="45.2851" lon="4.63002">
        <ele>435</ele>
        <time>2021-03-20T10:05:01Z</time>
      </trkpt>
      <trkpt lat="45.28515" lon="4.62799">
        <ele>443</ele>
        <time>2021-03-20T10:05:34Z</time>
      </trkpt>
      <trkpt lat="45.28516" lon="4.62767">
        <ele>444</ele>
        <time>2021-03-20T10:05:39Z</time>
      </trkpt>
      <trkpt lat="45.28514" lon="4.62752">
        <ele>444</ele>
        <time>2021-03-20T10:05:42Z</time>
      </trkpt>
      <trkpt lat="45.28507" lon="4.62751">
        <ele>444</ele>
        <time>2021-03-20T10:05:43Z</time>
      </trkpt>
      <trkpt lat="45.28485" lon="4.62762">
        <ele>446</ele>
        <time>2021-03-20T10:05:49Z</time>
      </trkpt>
      <trkpt lat="45.2848" lon="4.62781">
        <ele>446</ele>
        <time>2021-03-20T10:05:52Z</time>
      </trkpt>
      <trkpt lat="45.28471" lon="4.62788">
        <ele>447</ele>
        <time>2021-03-20T10:05:55Z</time>
      </trkpt>
      <trkpt lat="45.28464" lon="4.62784">
        <ele>449</ele>
        <time>2021-03-20T10:05:56Z</time>
      </trkpt>
      <trkpt lat="45.28456" lon="4.62702">
        <ele>454</ele>
        <time>2021-03-20T10:06:10Z</time>
      </trkpt>
      <trkpt lat="45.28453" lon="4.62697">
        <ele>455</ele>
        <time>2021-03-20T10:06:11Z</time>
      </trkpt>
      <trkpt lat="45.28447" lon="4.627">
        <ele>455</ele>
        <time>2021-03-20T10:06:13Z</time>
      </trkpt>
      <trkpt lat="45.28442" lon="4.62716">
        <ele>456</ele>
        <time>2021-03-20T10:06:15Z</time>
      </trkpt>
      <trkpt lat="45.2844" lon="4.62721">
        <ele>456</ele>
        <time>2021-03-20T10:06:16Z</time>
      </trkpt>
      <trkpt lat="45.28434" lon="4.62732">
        <ele>456</ele>
        <time>2021-03-20T10:06:19Z</time>
      </trkpt>
      <trkpt lat="45.28432" lon="4.62736">
        <ele>456</ele>
        <time>2021-03-20T10:06:19Z</time>
      </trkpt>
      <trkpt lat="45.28424" lon="4.62743">
        <ele>457</ele>
        <time>2021-03-20T10:06:22Z</time>
      </trkpt>
      <trkpt lat="45.2841" lon="4.62748">
        <ele>459</ele>
        <time>2021-03-20T10:06:25Z</time>
      </trkpt>
      <trkpt lat="45.28388" lon="4.6275">
        <ele>461</ele>
        <time>2021-03-20T10:06:30Z</time>
      </trkpt>
      <trkpt lat="45.28369" lon="4.62746">
        <ele>464</ele>
        <time>2021-03-20T10:06:35Z</time>
      </trkpt>
      <trkpt lat="45.2835" lon="4.62742">
        <ele>466</ele>
        <time>2021-03-20T10:06:39Z</time>
      </trkpt>
      <trkpt lat="45.28349" lon="4.62744">
        <ele>466</ele>
        <time>2021-03-20T10:06:40Z</time>
      </trkpt>
      <trkpt lat="45.28341" lon="4.62757">
        <ele>467</ele>
        <time>2021-03-20T10:06:42Z</time>
      </trkpt>
      <trkpt lat="45.28333" lon="4.6277">
        <ele>468</ele>
        <time>2021-03-20T10:06:45Z</time>
      </trkpt>
      <trkpt lat="45.28308" lon="4.62797">
        <ele>473</ele>
        <time>2021-03-20T10:06:53Z</time>
      </trkpt>
      <trkpt lat="45.28295" lon="4.62809">
        <ele>475</ele>
        <time>2021-03-20T10:06:56Z</time>
      </trkpt>
      <trkpt lat="45.2829" lon="4.62814">
        <ele>476</ele>
        <time>2021-03-20T10:06:58Z</time>
      </trkpt>
      <trkpt lat="45.28289" lon="4.62817">
        <ele>476</ele>
        <time>2021-03-20T10:06:58Z</time>
      </trkpt>
      <trkpt lat="45.28286" lon="4.62826">
        <ele>477</ele>
        <time>2021-03-20T10:07:00Z</time>
      </trkpt>
      <trkpt lat="45.28289" lon="4.62839">
        <ele>476</ele>
        <time>2021-03-20T10:07:02Z</time>
      </trkpt>
      <trkpt lat="45.28305" lon="4.62877">
        <ele>476</ele>
        <time>2021-03-20T10:07:09Z</time>
      </trkpt>
      <trkpt lat="45.28305" lon="4.62879">
        <ele>476</ele>
        <time>2021-03-20T10:07:10Z</time>
      </trkpt>
      <trkpt lat="45.28309" lon="4.62891">
        <ele>476</ele>
        <time>2021-03-20T10:07:12Z</time>
      </trkpt>
      <trkpt lat="45.2831" lon="4.62904">
        <ele>477</ele>
        <time>2021-03-20T10:07:14Z</time>
      </trkpt>
      <trkpt lat="45.28301" lon="4.62924">
        <ele>478</ele>
        <time>2021-03-20T10:07:18Z</time>
      </trkpt>
      <trkpt lat="45.28282" lon="4.62955">
        <ele>479</ele>
        <time>2021-03-20T10:07:25Z</time>
      </trkpt>
      <trkpt lat="45.28262" lon="4.6298">
        <ele>480</ele>
        <time>2021-03-20T10:07:31Z</time>
      </trkpt>
      <trkpt lat="45.28149" lon="4.63048">
        <ele>493</ele>
        <time>2021-03-20T10:08:00Z</time>
      </trkpt>
      <trkpt lat="45.28067" lon="4.63088">
        <ele>504</ele>
        <time>2021-03-20T10:08:20Z</time>
      </trkpt>
      <trkpt lat="45.28024" lon="4.6311">
        <ele>510</ele>
        <time>2021-03-20T10:08:30Z</time>
      </trkpt>
      <trkpt lat="45.28007" lon="4.63114">
        <ele>514</ele>
        <time>2021-03-20T10:08:34Z</time>
      </trkpt>
      <trkpt lat="45.27989" lon="4.63116">
        <ele>517</ele>
        <time>2021-03-20T10:08:39Z</time>
      </trkpt>
      <trkpt lat="45.27949" lon="4.63123">
        <ele>520</ele>
        <time>2021-03-20T10:08:48Z</time>
      </trkpt>
      <trkpt lat="45.27923" lon="4.63119">
        <ele>524</ele>
        <time>2021-03-20T10:08:54Z</time>
      </trkpt>
      <trkpt lat="45.27913" lon="4.63118">
        <ele>525</ele>
        <time>2021-03-20T10:08:57Z</time>
      </trkpt>
      <trkpt lat="45.27891" lon="4.63111">
        <ele>526</ele>
        <time>2021-03-20T10:09:02Z</time>
      </trkpt>
      <trkpt lat="45.27865" lon="4.63088">
        <ele>529</ele>
        <time>2021-03-20T10:09:09Z</time>
      </trkpt>
      <trkpt lat="45.27858" lon="4.63076">
        <ele>531</ele>
        <time>2021-03-20T10:09:12Z</time>
      </trkpt>
      <trkpt lat="45.27855" lon="4.6307">
        <ele>532</ele>
        <time>2021-03-20T10:09:13Z</time>
      </trkpt>
      <trkpt lat="45.27847" lon="4.63045">
        <ele>536</ele>
        <time>2021-03-20T10:09:17Z</time>
      </trkpt>
      <trkpt lat="45.2782" lon="4.63005">
        <ele>541</ele>
        <time>2021-03-20T10:09:26Z</time>
      </trkpt>
      <trkpt lat="45.27794" lon="4.62968">
        <ele>545</ele>
        <time>2021-03-20T10:09:35Z</time>
      </trkpt>
      <trkpt lat="45.27789" lon="4.62938">
        <ele>549</ele>
        <time>2021-03-20T10:09:40Z</time>
      </trkpt>
      <trkpt lat="45.27785" lon="4.62916">
        <ele>553</ele>
        <time>2021-03-20T10:09:44Z</time>
      </trkpt>
      <trkpt lat="45.27776" lon="4.62886">
        <ele>556</ele>
        <time>2021-03-20T10:09:49Z</time>
      </trkpt>
      <trkpt lat="45.27766" lon="4.6287">
        <ele>557</ele>
        <time>2021-03-20T10:09:53Z</time>
      </trkpt>
      <trkpt lat="45.27759" lon="4.62859">
        <ele>558</ele>
        <time>2021-03-20T10:09:55Z</time>
      </trkpt>
      <trkpt lat="45.27753" lon="4.62835">
        <ele>561</ele>
        <time>2021-03-20T10:09:59Z</time>
      </trkpt>
      <trkpt lat="45.27739" lon="4.62817">
        <ele>562</ele>
        <time>2021-03-20T10:10:04Z</time>
      </trkpt>
      <trkpt lat="45.27734" lon="4.62808">
        <ele>563</ele>
        <time>2021-03-20T10:10:06Z</time>
      </trkpt>
      <trkpt lat="45.27707" lon="4.62755">
        <ele>569</ele>
        <time>2021-03-20T10:10:16Z</time>
      </trkpt>
      <trkpt lat="45.27697" lon="4.62745">
        <ele>570</ele>
        <time>2021-03-20T10:10:19Z</time>
      </trkpt>
      <trkpt lat="45.27665" lon="4.62723">
        <ele>570</ele>
        <time>2021-03-20T10:10:27Z</time>
      </trkpt>
      <trkpt lat="45.2763" lon="4.62692">
        <ele>573</ele>
        <time>2021-03-20T10:10:37Z</time>
      </trkpt>
      <trkpt lat="45.27605" lon="4.62666">
        <ele>576</ele>
        <time>2021-03-20T10:10:44Z</time>
      </trkpt>
      <trkpt lat="45.27592" lon="4.62624">
        <ele>576</ele>
        <time>2021-03-20T10:10:52Z</time>
      </trkpt>
      <trkpt lat="45.27592" lon="4.62623">
        <ele>576</ele>
        <time>2021-03-20T10:10:52Z</time>
      </trkpt>
      <trkpt lat="45.27479" lon="4.62668">
        <ele>585</ele>
        <time>2021-03-20T10:11:19Z</time>
      </trkpt>
      <trkpt lat="45.2746" lon="4.6267">
        <ele>588</ele>
        <time>2021-03-20T10:11:24Z</time>
      </trkpt>
      <trkpt lat="45.2744" lon="4.62667">
        <ele>591</ele>
        <time>2021-03-20T10:11:29Z</time>
      </trkpt>
      <trkpt lat="45.27408" lon="4.62655">
        <ele>597</ele>
        <time>2021-03-20T10:11:36Z</time>
      </trkpt>
      <trkpt lat="45.27399" lon="4.62659">
        <ele>599</ele>
        <time>2021-03-20T10:11:39Z</time>
      </trkpt>
      <trkpt lat="45.27395" lon="4.62672">
        <ele>599</ele>
        <time>2021-03-20T10:11:41Z</time>
      </trkpt>
      <trkpt lat="45.27393" lon="4.62701">
        <ele>596</ele>
        <time>2021-03-20T10:11:46Z</time>
      </trkpt>
      <trkpt lat="45.27387" lon="4.62722">
        <ele>596</ele>
        <time>2021-03-20T10:11:49Z</time>
      </trkpt>
      <trkpt lat="45.27366" lon="4.62746">
        <ele>599</ele>
        <time>2021-03-20T10:11:56Z</time>
      </trkpt>
      <trkpt lat="45.27356" lon="4.62761">
        <ele>599</ele>
        <time>2021-03-20T10:11:59Z</time>
      </trkpt>
      <trkpt lat="45.27348" lon="4.62782">
        <ele>599</ele>
        <time>2021-03-20T10:12:03Z</time>
      </trkpt>
      <trkpt lat="45.27336" lon="4.62828">
        <ele>597</ele>
        <time>2021-03-20T10:12:11Z</time>
      </trkpt>
      <trkpt lat="45.27323" lon="4.62863">
        <ele>597</ele>
        <time>2021-03-20T10:12:18Z</time>
      </trkpt>
      <trkpt lat="45.27294" lon="4.62867">
        <ele>604</ele>
        <time>2021-03-20T10:12:24Z</time>
      </trkpt>
      <trkpt lat="45.27292" lon="4.62876">
        <ele>603</ele>
        <time>2021-03-20T10:12:26Z</time>
      </trkpt>
      <trkpt lat="45.27296" lon="4.62898">
        <ele>600</ele>
        <time>2021-03-20T10:12:30Z</time>
      </trkpt>
      <trkpt lat="45.27297" lon="4.62925">
        <ele>597</ele>
        <time>2021-03-20T10:12:34Z</time>
      </trkpt>
      <trkpt lat="45.27293" lon="4.62952">
        <ele>597</ele>
        <time>2021-03-20T10:12:39Z</time>
      </trkpt>
      <trkpt lat="45.27275" lon="4.63002">
        <ele>597</ele>
        <time>2021-03-20T10:12:48Z</time>
      </trkpt>
      <trkpt lat="45.27269" lon="4.63026">
        <ele>597</ele>
        <time>2021-03-20T10:12:52Z</time>
      </trkpt>
      <trkpt lat="45.27262" lon="4.63045">
        <ele>598</ele>
        <time>2021-03-20T10:12:56Z</time>
      </trkpt>
      <trkpt lat="45.27255" lon="4.63053">
        <ele>599</ele>
        <time>2021-03-20T10:12:58Z</time>
      </trkpt>
      <trkpt lat="45.27242" lon="4.63063">
        <ele>599</ele>
        <time>2021-03-20T10:13:01Z</time>
      </trkpt>
      <trkpt lat="45.27231" lon="4.63066">
        <ele>600</ele>
        <time>2021-03-20T10:13:04Z</time>
      </trkpt>
      <trkpt lat="45.27216" lon="4.63068">
        <ele>600</ele>
        <time>2021-03-20T10:13:07Z</time>
      </trkpt>
      <trkpt lat="45.27224" lon="4.63036">
        <ele>602</ele>
        <time>2021-03-20T10:13:13Z</time>
      </trkpt>
      <trkpt lat="45.27225" lon="4.63019">
        <ele>602</ele>
        <time>2021-03-20T10:13:16Z</time>
      </trkpt>
      <trkpt lat="45.27208" lon="4.62928">
        <ele>613</ele>
        <time>2021-03-20T10:13:31Z</time>
      </trkpt>
      <trkpt lat="45.27203" lon="4.62861">
        <ele>622</ele>
        <time>2021-03-20T10:13:42Z</time>
      </trkpt>
      <trkpt lat="45.27195" lon="4.62823">
        <ele>627</ele>
        <time>2021-03-20T10:13:49Z</time>
      </trkpt>
      <trkpt lat="45.27168" lon="4.62744">
        <ele>641</ele>
        <time>2021-03-20T10:14:03Z</time>
      </trkpt>
      <trkpt lat="45.27154" lon="4.62669">
        <ele>650</ele>
        <time>2021-03-20T10:14:16Z</time>
      </trkpt>
      <trkpt lat="45.27155" lon="4.62645">
        <ele>652</ele>
        <time>2021-03-20T10:14:20Z</time>
      </trkpt>
      <trkpt lat="45.27164" lon="4.62578">
        <ele>656</ele>
        <time>2021-03-20T10:14:31Z</time>
      </trkpt>
      <trkpt lat="45.27163" lon="4.62549">
        <ele>657</ele>
        <time>2021-03-20T10:14:36Z</time>
      </trkpt>
      <trkpt lat="45.27154" lon="4.62514">
        <ele>659</ele>
        <time>2021-03-20T10:14:42Z</time>
      </trkpt>
      <trkpt lat="45.27127" lon="4.62458">
        <ele>666</ele>
        <time>2021-03-20T10:14:53Z</time>
      </trkpt>
      <trkpt lat="45.2712" lon="4.62455">
        <ele>668</ele>
        <time>2021-03-20T10:14:55Z</time>
      </trkpt>
      <trkpt lat="45.27095" lon="4.62485">
        <ele>673</ele>
        <time>2021-03-20T10:15:02Z</time>
      </trkpt>
      <trkpt lat="45.27083" lon="4.62487">
        <ele>676</ele>
        <time>2021-03-20T10:15:05Z</time>
      </trkpt>
      <trkpt lat="45.27071" lon="4.62485">
        <ele>678</ele>
        <time>2021-03-20T10:15:08Z</time>
      </trkpt>
      <trkpt lat="45.27037" lon="4.62465">
        <ele>686</ele>
        <time>2021-03-20T10:15:17Z</time>
      </trkpt>
      <trkpt lat="45.27021" lon="4.62461">
        <ele>690</ele>
        <time>2021-03-20T10:15:20Z</time>
      </trkpt>
      <trkpt lat="45.27005" lon="4.62448">
        <ele>694</ele>
        <time>2021-03-20T10:15:25Z</time>
      </trkpt>
      <trkpt lat="45.26977" lon="4.62421">
        <ele>699</ele>
        <time>2021-03-20T10:15:33Z</time>
      </trkpt>
      <trkpt lat="45.2694" lon="4.62402">
        <ele>704</ele>
        <time>2021-03-20T10:15:42Z</time>
      </trkpt>
      <trkpt lat="45.26935" lon="4.62392">
        <ele>705</ele>
        <time>2021-03-20T10:15:44Z</time>
      </trkpt>
      <trkpt lat="45.26936" lon="4.62376">
        <ele>707</ele>
        <time>2021-03-20T10:15:47Z</time>
      </trkpt>
      <trkpt lat="45.26934" lon="4.62363">
        <ele>709</ele>
        <time>2021-03-20T10:15:49Z</time>
      </trkpt>
      <trkpt lat="45.26923" lon="4.62339">
        <ele>713</ele>
        <time>2021-03-20T10:15:53Z</time>
      </trkpt>
      <trkpt lat="45.26915" lon="4.6231">
        <ele>717</ele>
        <time>2021-03-20T10:15:59Z</time>
      </trkpt>
      <trkpt lat="45.26899" lon="4.6227">
        <ele>719</ele>
        <time>2021-03-20T10:16:06Z</time>
      </trkpt>
      <trkpt lat="45.26886" lon="4.62249">
        <ele>720</ele>
        <time>2021-03-20T10:16:11Z</time>
      </trkpt>
      <trkpt lat="45.26874" lon="4.6222">
        <ele>722</ele>
        <time>2021-03-20T10:16:16Z</time>
      </trkpt>
      <trkpt lat="45.26846" lon="4.6217">
        <ele>729</ele>
        <time>2021-03-20T10:16:27Z</time>
      </trkpt>
      <trkpt lat="45.26833" lon="4.6215">
        <ele>730</ele>
        <time>2021-03-20T10:16:31Z</time>
      </trkpt>
      <trkpt lat="45.26817" lon="4.62135">
        <ele>729</ele>
        <time>2021-03-20T10:16:36Z</time>
      </trkpt>
      <trkpt lat="45.26793" lon="4.62105">
        <ele>731</ele>
        <time>2021-03-20T10:16:43Z</time>
      </trkpt>
      <trkpt lat="45.2678" lon="4.62048">
        <ele>733</ele>
        <time>2021-03-20T10:16:53Z</time>
      </trkpt>
      <trkpt lat="45.26777" lon="4.62013">
        <ele>733</ele>
        <time>2021-03-20T10:16:59Z</time>
      </trkpt>
      <trkpt lat="45.26766" lon="4.61959">
        <ele>732</ele>
        <time>2021-03-20T10:17:08Z</time>
      </trkpt>
      <trkpt lat="45.26748" lon="4.61907">
        <ele>734</ele>
        <time>2021-03-20T10:17:18Z</time>
      </trkpt>
      <trkpt lat="45.26729" lon="4.61867">
        <ele>733</ele>
        <time>2021-03-20T10:17:25Z</time>
      </trkpt>
      <trkpt lat="45.26687" lon="4.61802">
        <ele>733</ele>
        <time>2021-03-20T10:17:40Z</time>
      </trkpt>
      <trkpt lat="45.26681" lon="4.61782">
        <ele>733</ele>
        <time>2021-03-20T10:17:44Z</time>
      </trkpt>
      <trkpt lat="45.26677" lon="4.61765">
        <ele>733</ele>
        <time>2021-03-20T10:17:46Z</time>
      </trkpt>
      <trkpt lat="45.26674" lon="4.61717">
        <ele>733</ele>
        <time>2021-03-20T10:17:54Z</time>
      </trkpt>
      <trkpt lat="45.26661" lon="4.61648">
        <ele>735</ele>
        <time>2021-03-20T10:18:06Z</time>
      </trkpt>
      <trkpt lat="45.26648" lon="4.61516">
        <ele>733</ele>
        <time>2021-03-20T10:18:28Z</time>
      </trkpt>
      <trkpt lat="45.26624" lon="4.61406">
        <ele>725</ele>
        <time>2021-03-20T10:18:47Z</time>
      </trkpt>
      <trkpt lat="45.26625" lon="4.61357">
        <ele>723</ele>
        <time>2021-03-20T10:18:55Z</time>
      </trkpt>
      <trkpt lat="45.2662" lon="4.61307">
        <ele>722</ele>
        <time>2021-03-20T10:19:03Z</time>
      </trkpt>
      <trkpt lat="45.26617" lon="4.6125">
        <ele>722</ele>
        <time>2021-03-20T10:19:13Z</time>
      </trkpt>
      <trkpt lat="45.26613" lon="4.61225">
        <ele>724</ele>
        <time>2021-03-20T10:19:17Z</time>
      </trkpt>
      <trkpt lat="45.266" lon="4.6121">
        <ele>724</ele>
        <time>2021-03-20T10:19:21Z</time>
      </trkpt>
      <trkpt lat="45.26601" lon="4.61182">
        <ele>726</ele>
        <time>2021-03-20T10:19:25Z</time>
      </trkpt>
      <trkpt lat="45.26607" lon="4.61157">
        <ele>729</ele>
        <time>2021-03-20T10:19:30Z</time>
      </trkpt>
      <trkpt lat="45.26612" lon="4.61124">
        <ele>734</ele>
        <time>2021-03-20T10:19:35Z</time>
      </trkpt>
      <trkpt lat="45.26624" lon="4.61104">
        <ele>737</ele>
        <time>2021-03-20T10:19:40Z</time>
      </trkpt>
      <trkpt lat="45.26633" lon="4.61075">
        <ele>741</ele>
        <time>2021-03-20T10:19:45Z</time>
      </trkpt>
      <trkpt lat="45.26649" lon="4.61055">
        <ele>743</ele>
        <time>2021-03-20T10:19:50Z</time>
      </trkpt>
      <trkpt lat="45.26653" lon="4.61038">
        <ele>744</ele>
        <time>2021-03-20T10:19:53Z</time>
      </trkpt>
      <trkpt lat="45.26658" lon="4.6098">
        <ele>751</ele>
        <time>2021-03-20T10:20:02Z</time>
      </trkpt>
      <trkpt lat="45.26665" lon="4.60925">
        <ele>758</ele>
        <time>2021-03-20T10:20:12Z</time>
      </trkpt>
      <trkpt lat="45.26678" lon="4.60893">
        <ele>757</ele>
        <time>2021-03-20T10:20:18Z</time>
      </trkpt>
      <trkpt lat="45.26687" lon="4.60855">
        <ele>756</ele>
        <time>2021-03-20T10:20:24Z</time>
      </trkpt>
      <trkpt lat="45.26704" lon="4.60809">
        <ele>758</ele>
        <time>2021-03-20T10:20:33Z</time>
      </trkpt>
      <trkpt lat="45.26721" lon="4.6072">
        <ele>772</ele>
        <time>2021-03-20T10:20:48Z</time>
      </trkpt>
      <trkpt lat="45.2673" lon="4.60687">
        <ele>776</ele>
        <time>2021-03-20T10:20:54Z</time>
      </trkpt>
      <trkpt lat="45.26784" lon="4.60588">
        <ele>788</ele>
        <time>2021-03-20T10:21:14Z</time>
      </trkpt>
      <trkpt lat="45.26803" lon="4.60558">
        <ele>792</ele>
        <time>2021-03-20T10:21:21Z</time>
      </trkpt>
      <trkpt lat="45.26828" lon="4.60529">
        <ele>794</ele>
        <time>2021-03-20T10:21:29Z</time>
      </trkpt>
      <trkpt lat="45.26854" lon="4.60502">
        <ele>797</ele>
        <time>2021-03-20T10:21:36Z</time>
      </trkpt>
      <trkpt lat="45.2688" lon="4.60472">
        <ele>800</ele>
        <time>2021-03-20T10:21:44Z</time>
      </trkpt>
      <trkpt lat="45.26922" lon="4.60414">
        <ele>807</ele>
        <time>2021-03-20T10:21:58Z</time>
      </trkpt>
      <trkpt lat="45.26936" lon="4.60393">
        <ele>810</ele>
        <time>2021-03-20T10:22:02Z</time>
      </trkpt>
      <trkpt lat="45.2695" lon="4.60359">
        <ele>817</ele>
        <time>2021-03-20T10:22:09Z</time>
      </trkpt>
      <trkpt lat="45.26967" lon="4.60337">
        <ele>820</ele>
        <time>2021-03-20T10:22:14Z</time>
      </trkpt>
      <trkpt lat="45.26981" lon="4.60309">
        <ele>825</ele>
        <time>2021-03-20T10:22:20Z</time>
      </trkpt>
      <trkpt lat="45.26999" lon="4.60282">
        <ele>828</ele>
        <time>2021-03-20T10:22:26Z</time>
      </trkpt>
      <trkpt lat="45.27017" lon="4.60271">
        <ele>830</ele>
        <time>2021-03-20T10:22:30Z</time>
      </trkpt>
      <trkpt lat="45.27052" lon="4.60227">
        <ele>836</ele>
        <time>2021-03-20T10:22:41Z</time>
      </trkpt>
      <trkpt lat="45.27057" lon="4.60234">
        <ele>835</ele>
        <time>2021-03-20T10:22:43Z</time>
      </trkpt>
      <trkpt lat="45.27052" lon="4.60227">
        <ele>836</ele>
        <time>2021-03-20T10:22:45Z</time>
      </trkpt>
      <trkpt lat="45.27065" lon="4.60215">
        <ele>837</ele>
        <time>2021-03-20T10:22:48Z</time>
      </trkpt>
      <trkpt lat="45.27102" lon="4.60197">
        <ele>835</ele>
        <time>2021-03-20T10:22:57Z</time>
      </trkpt>
      <trkpt lat="45.27111" lon="4.60185">
        <ele>835</ele>
        <time>2021-03-20T10:23:00Z</time>
      </trkpt>
      <trkpt lat="45.27118" lon="4.60138">
        <ele>838</ele>
        <time>2021-03-20T10:23:08Z</time>
      </trkpt>
      <trkpt lat="45.27115" lon="4.60095">
        <ele>841</ele>
        <time>2021-03-20T10:23:15Z</time>
      </trkpt>
      <trkpt lat="45.27111" lon="4.60072">
        <ele>843</ele>
        <time>2021-03-20T10:23:19Z</time>
      </trkpt>
      <trkpt lat="45.27095" lon="4.60036">
        <ele>846</ele>
        <time>2021-03-20T10:23:26Z</time>
      </trkpt>
      <trkpt lat="45.27076" lon="4.60017">
        <ele>850</ele>
        <time>2021-03-20T10:23:32Z</time>
      </trkpt>
      <trkpt lat="45.27061" lon="4.60011">
        <ele>852</ele>
        <time>2021-03-20T10:23:35Z</time>
      </trkpt>
      <trkpt lat="45.2704" lon="4.59995">
        <ele>854</ele>
        <time>2021-03-20T10:23:41Z</time>
      </trkpt>
      <trkpt lat="45.2701" lon="4.59966">
        <ele>857</ele>
        <time>2021-03-20T10:23:49Z</time>
      </trkpt>
      <trkpt lat="45.2698" lon="4.59942">
        <ele>859</ele>
        <time>2021-03-20T10:23:57Z</time>
      </trkpt>
      <trkpt lat="45.26964" lon="4.59926">
        <ele>859</ele>
        <time>2021-03-20T10:24:02Z</time>
      </trkpt>
      <trkpt lat="45.26948" lon="4.59906">
        <ele>860</ele>
        <time>2021-03-20T10:24:07Z</time>
      </trkpt>
      <trkpt lat="45.26908" lon="4.59851">
        <ele>861</ele>
        <time>2021-03-20T10:24:20Z</time>
      </trkpt>
      <trkpt lat="45.26899" lon="4.59832">
        <ele>861</ele>
        <time>2021-03-20T10:24:24Z</time>
      </trkpt>
      <trkpt lat="45.26919" lon="4.59743">
        <ele>858</ele>
        <time>2021-03-20T10:24:39Z</time>
      </trkpt>
      <trkpt lat="45.26949" lon="4.5969">
        <ele>855</ele>
        <time>2021-03-20T10:24:50Z</time>
      </trkpt>
      <trkpt lat="45.26964" lon="4.59662">
        <ele>853</ele>
        <time>2021-03-20T10:24:56Z</time>
      </trkpt>
      <trkpt lat="45.26974" lon="4.59619">
        <ele>849</ele>
        <time>2021-03-20T10:25:03Z</time>
      </trkpt>
      <trkpt lat="45.26979" lon="4.5958">
        <ele>845</ele>
        <time>2021-03-20T10:25:10Z</time>
      </trkpt>
      <trkpt lat="45.26974" lon="4.59547">
        <ele>843</ele>
        <time>2021-03-20T10:25:15Z</time>
      </trkpt>
      <trkpt lat="45.26958" lon="4.59492">
        <ele>841</ele>
        <time>2021-03-20T10:25:25Z</time>
      </trkpt>
      <trkpt lat="45.26945" lon="4.59457">
        <ele>843</ele>
        <time>2021-03-20T10:25:32Z</time>
      </trkpt>
      <trkpt lat="45.26941" lon="4.59419">
        <ele>841</ele>
        <time>2021-03-20T10:25:38Z</time>
      </trkpt>
      <trkpt lat="45.26943" lon="4.5938">
        <ele>839</ele>
        <time>2021-03-20T10:25:44Z</time>
      </trkpt>
      <trkpt lat="45.26951" lon="4.59333">
        <ele>835</ele>
        <time>2021-03-20T10:25:52Z</time>
      </trkpt>
      <trkpt lat="45.26951" lon="4.5929">
        <ele>835</ele>
        <time>2021-03-20T10:26:00Z</time>
      </trkpt>
      <trkpt lat="45.26947" lon="4.59261">
        <ele>836</ele>
        <time>2021-03-20T10:26:04Z</time>
      </trkpt>
      <trkpt lat="45.26951" lon="4.5921">
        <ele>841</ele>
        <time>2021-03-20T10:26:13Z</time>
      </trkpt>
      <trkpt lat="45.2696" lon="4.59183">
        <ele>843</ele>
        <time>2021-03-20T10:26:18Z</time>
      </trkpt>
      <trkpt lat="45.26994" lon="4.59188">
        <ele>837</ele>
        <time>2021-03-20T10:26:26Z</time>
      </trkpt>
      <trkpt lat="45.27054" lon="4.59248">
        <ele>826</ele>
        <time>2021-03-20T10:26:43Z</time>
      </trkpt>
      <trkpt lat="45.27122" lon="4.59311">
        <ele>812</ele>
        <time>2021-03-20T10:27:02Z</time>
      </trkpt>
      <trkpt lat="45.27143" lon="4.59323">
        <ele>809</ele>
        <time>2021-03-20T10:27:07Z</time>
      </trkpt>
      <trkpt lat="45.27152" lon="4.59325">
        <ele>808</ele>
        <time>2021-03-20T10:27:09Z</time>
      </trkpt>
      <trkpt lat="45.27186" lon="4.59323">
        <ele>803</ele>
        <time>2021-03-20T10:27:17Z</time>
      </trkpt>
      <trkpt lat="45.27201" lon="4.59316">
        <ele>800</ele>
        <time>2021-03-20T10:27:21Z</time>
      </trkpt>
      <trkpt lat="45.27209" lon="4.59308">
        <ele>799</ele>
        <time>2021-03-20T10:27:23Z</time>
      </trkpt>
      <trkpt lat="45.27214" lon="4.59285">
        <ele>799</ele>
        <time>2021-03-20T10:27:27Z</time>
      </trkpt>
      <trkpt lat="45.27198" lon="4.59294">
        <ele>803</ele>
        <time>2021-03-20T10:27:31Z</time>
      </trkpt>
      <trkpt lat="45.27163" lon="4.59294">
        <ele>812</ele>
        <time>2021-03-20T10:27:39Z</time>
      </trkpt>
      <trkpt lat="45.27155" lon="4.59285">
        <ele>814</ele>
        <time>2021-03-20T10:27:42Z</time>
      </trkpt>
      <trkpt lat="45.27133" lon="4.59241">
        <ele>821</ele>
        <time>2021-03-20T10:27:51Z</time>
      </trkpt>
      <trkpt lat="45.27111" lon="4.59224">
        <ele>824</ele>
        <time>2021-03-20T10:27:56Z</time>
      </trkpt>
      <trkpt lat="45.27076" lon="4.59186">
        <ele>832</ele>
        <time>2021-03-20T10:28:07Z</time>
      </trkpt>
      <trkpt lat="45.27043" lon="4.59154">
        <ele>838</ele>
        <time>2021-03-20T10:28:16Z</time>
      </trkpt>
      <trkpt lat="45.27037" lon="4.59146">
        <ele>839</ele>
        <time>2021-03-20T10:28:18Z</time>
      </trkpt>
      <trkpt lat="45.27026" lon="4.59139">
        <ele>841</ele>
        <time>2021-03-20T10:28:21Z</time>
      </trkpt>
      <trkpt lat="45.27017" lon="4.59115">
        <ele>845</ele>
        <time>2021-03-20T10:28:25Z</time>
      </trkpt>
      <trkpt lat="45.27004" lon="4.5905">
        <ele>852</ele>
        <time>2021-03-20T10:28:36Z</time>
      </trkpt>
      <trkpt lat="45.26999" lon="4.59005">
        <ele>854</ele>
        <time>2021-03-20T10:28:44Z</time>
      </trkpt>
      <trkpt lat="45.26991" lon="4.58972">
        <ele>857</ele>
        <time>2021-03-20T10:28:50Z</time>
      </trkpt>
      <trkpt lat="45.26977" lon="4.58933">
        <ele>862</ele>
        <time>2021-03-20T10:28:57Z</time>
      </trkpt>
      <trkpt lat="45.26975" lon="4.58886">
        <ele>863</ele>
        <time>2021-03-20T10:29:04Z</time>
      </trkpt>
      <trkpt lat="45.26965" lon="4.58848">
        <ele>866</ele>
        <time>2021-03-20T10:29:11Z</time>
      </trkpt>
      <trkpt lat="45.26922" lon="4.58758">
        <ele>875</ele>
        <time>2021-03-20T10:29:29Z</time>
      </trkpt>
      <trkpt lat="45.26897" lon="4.58695">
        <ele>878</ele>
        <time>2021-03-20T10:29:41Z</time>
      </trkpt>
      <trkpt lat="45.26847" lon="4.58591">
        <ele>890</ele>
        <time>2021-03-20T10:30:02Z</time>
      </trkpt>
      <trkpt lat="45.26814" lon="4.58535">
        <ele>896</ele>
        <time>2021-03-20T10:30:14Z</time>
      </trkpt>
      <trkpt lat="45.26768" lon="4.58482">
        <ele>906</ele>
        <time>2021-03-20T10:30:27Z</time>
      </trkpt>
      <trkpt lat="45.26726" lon="4.5844">
        <ele>909</ele>
        <time>2021-03-20T10:30:39Z</time>
      </trkpt>
      <trkpt lat="45.26703" lon="4.58419">
        <ele>909</ele>
        <time>2021-03-20T10:30:46Z</time>
      </trkpt>
      <trkpt lat="45.26678" lon="4.58415">
        <ele>911</ele>
        <time>2021-03-20T10:30:52Z</time>
      </trkpt>
      <trkpt lat="45.26666" lon="4.58401">
        <ele>913</ele>
        <time>2021-03-20T10:30:55Z</time>
      </trkpt>
      <trkpt lat="45.26649" lon="4.5837">
        <ele>911</ele>
        <time>2021-03-20T10:31:02Z</time>
      </trkpt>
      <trkpt lat="45.26636" lon="4.58281">
        <ele>910</ele>
        <time>2021-03-20T10:31:17Z</time>
      </trkpt>
      <trkpt lat="45.2664" lon="4.58185">
        <ele>909</ele>
        <time>2021-03-20T10:31:33Z</time>
      </trkpt>
      <trkpt lat="45.26637" lon="4.57992">
        <ele>903</ele>
        <time>2021-03-20T10:32:04Z</time>
      </trkpt>
      <trkpt lat="45.2665" lon="4.5798">
        <ele>904</ele>
        <time>2021-03-20T10:32:08Z</time>
      </trkpt>
      <trkpt lat="45.26681" lon="4.57964">
        <ele>907</ele>
        <time>2021-03-20T10:32:16Z</time>
      </trkpt>
      <trkpt lat="45.2669" lon="4.57946">
        <ele>907</ele>
        <time>2021-03-20T10:32:19Z</time>
      </trkpt>
      <trkpt lat="45.26704" lon="4.57908">
        <ele>907</ele>
        <time>2021-03-20T10:32:26Z</time>
      </trkpt>
      <trkpt lat="45.26736" lon="4.57794">
        <ele>910</ele>
        <time>2021-03-20T10:32:46Z</time>
      </trkpt>
      <trkpt lat="45.26751" lon="4.57728">
        <ele>915</ele>
        <time>2021-03-20T10:32:58Z</time>
      </trkpt>
      <trkpt lat="45.26783" lon="4.57662">
        <ele>916</ele>
        <time>2021-03-20T10:33:11Z</time>
      </trkpt>
      <trkpt lat="45.26791" lon="4.57613">
        <ele>918</ele>
        <time>2021-03-20T10:33:19Z</time>
      </trkpt>
      <trkpt lat="45.26804" lon="4.57577">
        <ele>920</ele>
        <time>2021-03-20T10:33:26Z</time>
      </trkpt>
      <trkpt lat="45.26846" lon="4.57526">
        <ele>927</ele>
        <time>2021-03-20T10:33:39Z</time>
      </trkpt>
      <trkpt lat="45.26905" lon="4.57435">
        <ele>938</ele>
        <time>2021-03-20T10:33:59Z</time>
      </trkpt>
      <trkpt lat="45.26945" lon="4.57409">
        <ele>939</ele>
        <time>2021-03-20T10:34:09Z</time>
      </trkpt>
      <trkpt lat="45.26968" lon="4.57387">
        <ele>940</ele>
        <time>2021-03-20T10:34:16Z</time>
      </trkpt>
      <trkpt lat="45.27002" lon="4.57389">
        <ele>935</ele>
        <time>2021-03-20T10:34:24Z</time>
      </trkpt>
      <trkpt lat="45.27028" lon="4.57363">
        <ele>935</ele>
        <time>2021-03-20T10:34:31Z</time>
      </trkpt>
      <trkpt lat="45.27061" lon="4.57305">
        <ele>938</ele>
        <time>2021-03-20T10:34:44Z</time>
      </trkpt>
      <trkpt lat="45.27109" lon="4.57173">
        <ele>933</ele>
        <time>2021-03-20T10:35:08Z</time>
      </trkpt>
      <trkpt lat="45.27148" lon="4.57133">
        <ele>926</ele>
        <time>2021-03-20T10:35:19Z</time>
      </trkpt>
      <trkpt lat="45.27157" lon="4.57093">
        <ele>921</ele>
        <time>2021-03-20T10:35:26Z</time>
      </trkpt>
      <trkpt lat="45.27145" lon="4.57013">
        <ele>915</ele>
        <time>2021-03-20T10:35:40Z</time>
      </trkpt>
      <trkpt lat="45.27142" lon="4.5692">
        <ele>912</ele>
        <time>2021-03-20T10:35:55Z</time>
      </trkpt>
      <trkpt lat="45.27125" lon="4.5689">
        <ele>909</ele>
        <time>2021-03-20T10:36:01Z</time>
      </trkpt>
      <trkpt lat="45.27109" lon="4.56816">
        <ele>902</ele>
        <time>2021-03-20T10:36:14Z</time>
      </trkpt>
      <trkpt lat="45.27085" lon="4.56732">
        <ele>898</ele>
        <time>2021-03-20T10:36:29Z</time>
      </trkpt>
      <trkpt lat="45.27084" lon="4.56714">
        <ele>897</ele>
        <time>2021-03-20T10:36:32Z</time>
      </trkpt>
      <trkpt lat="45.27089" lon="4.56687">
        <ele>895</ele>
        <time>2021-03-20T10:36:36Z</time>
      </trkpt>
      <trkpt lat="45.27086" lon="4.56675">
        <ele>895</ele>
        <time>2021-03-20T10:36:38Z</time>
      </trkpt>
      <trkpt lat="45.27079" lon="4.56666">
        <ele>895</ele>
        <time>2021-03-20T10:36:41Z</time>
      </trkpt>
      <trkpt lat="45.27072" lon="4.56665">
        <ele>895</ele>
        <time>2021-03-20T10:36:42Z</time>
      </trkpt>
      <trkpt lat="45.27062" lon="4.56677">
        <ele>895</ele>
        <time>2021-03-20T10:36:45Z</time>
      </trkpt>
      <trkpt lat="45.27057" lon="4.5668">
        <ele>895</ele>
        <time>2021-03-20T10:36:47Z</time>
      </trkpt>
      <trkpt lat="45.27052" lon="4.56681">
        <ele>895</ele>
        <time>2021-03-20T10:36:48Z</time>
      </trkpt>
      <trkpt lat="45.27049" lon="4.56658">
        <ele>894</ele>
        <time>2021-03-20T10:36:52Z</time>
      </trkpt>
      <trkpt lat="45.2704" lon="4.56634">
        <ele>894</ele>
        <time>2021-03-20T10:36:56Z</time>
      </trkpt>
      <trkpt lat="45.27013" lon="4.56576">
        <ele>893</ele>
        <time>2021-03-20T10:37:08Z</time>
      </trkpt>
      <trkpt lat="45.27011" lon="4.56568">
        <ele>894</ele>
        <time>2021-03-20T10:37:09Z</time>
      </trkpt>
      <trkpt lat="45.27012" lon="4.56565">
        <ele>893</ele>
        <time>2021-03-20T10:37:09Z</time>
      </trkpt>
      <trkpt lat="45.27004" lon="4.56557">
        <ele>894</ele>
        <time>2021-03-20T10:37:12Z</time>
      </trkpt>
      <trkpt lat="45.26997" lon="4.56544">
        <ele>894</ele>
        <time>2021-03-20T10:37:14Z</time>
      </trkpt>
      <trkpt lat="45.26996" lon="4.56518">
        <ele>895</ele>
        <time>2021-03-20T10:37:19Z</time>
      </trkpt>
      <trkpt lat="45.26994" lon="4.56502">
        <ele>895</ele>
        <time>2021-03-20T10:37:21Z</time>
      </trkpt>
      <trkpt lat="45.26991" lon="4.56469">
        <ele>895</ele>
        <time>2021-03-20T10:37:27Z</time>
      </trkpt>
      <trkpt lat="45.2699" lon="4.56401">
        <ele>894</ele>
        <time>2021-03-20T10:37:38Z</time>
      </trkpt>
      <trkpt lat="45.26979" lon="4.56311">
        <ele>892</ele>
        <time>2021-03-20T10:37:53Z</time>
      </trkpt>
      <trkpt lat="45.26977" lon="4.56255">
        <ele>892</ele>
        <time>2021-03-20T10:38:02Z</time>
      </trkpt>
      <trkpt lat="45.2698" lon="4.56186">
        <ele>894</ele>
        <time>2021-03-20T10:38:14Z</time>
      </trkpt>
      <trkpt lat="45.26983" lon="4.5618">
        <ele>894</ele>
        <time>2021-03-20T10:38:15Z</time>
      </trkpt>
      <trkpt lat="45.26977" lon="4.56131">
        <ele>896</ele>
        <time>2021-03-20T10:38:23Z</time>
      </trkpt>
      <trkpt lat="45.26963" lon="4.56063">
        <ele>898</ele>
        <time>2021-03-20T10:38:35Z</time>
      </trkpt>
      <trkpt lat="45.26959" lon="4.56033">
        <ele>900</ele>
        <time>2021-03-20T10:38:40Z</time>
      </trkpt>
      <trkpt lat="45.26952" lon="4.55972">
        <ele>903</ele>
        <time>2021-03-20T10:38:50Z</time>
      </trkpt>
      <trkpt lat="45.2695" lon="4.55924">
        <ele>906</ele>
        <time>2021-03-20T10:38:58Z</time>
      </trkpt>
      <trkpt lat="45.26955" lon="4.559">
        <ele>908</ele>
        <time>2021-03-20T10:39:02Z</time>
      </trkpt>
      <trkpt lat="45.26965" lon="4.55867">
        <ele>910</ele>
        <time>2021-03-20T10:39:08Z</time>
      </trkpt>
      <trkpt lat="45.26984" lon="4.55744">
        <ele>919</ele>
        <time>2021-03-20T10:39:28Z</time>
      </trkpt>
      <trkpt lat="45.26997" lon="4.55693">
        <ele>923</ele>
        <time>2021-03-20T10:39:37Z</time>
      </trkpt>
      <trkpt lat="45.27004" lon="4.55643">
        <ele>928</ele>
        <time>2021-03-20T10:39:46Z</time>
      </trkpt>
      <trkpt lat="45.27005" lon="4.55609">
        <ele>932</ele>
        <time>2021-03-20T10:39:51Z</time>
      </trkpt>
      <trkpt lat="45.27019" lon="4.5554">
        <ele>942</ele>
        <time>2021-03-20T10:40:03Z</time>
      </trkpt>
      <trkpt lat="45.27008" lon="4.55516">
        <ele>943</ele>
        <time>2021-03-20T10:40:08Z</time>
      </trkpt>
      <trkpt lat="45.26993" lon="4.55495">
        <ele>944</ele>
        <time>2021-03-20T10:40:13Z</time>
      </trkpt>
      <trkpt lat="45.26964" lon="4.5547">
        <ele>945</ele>
        <time>2021-03-20T10:40:21Z</time>
      </trkpt>
      <trkpt lat="45.26941" lon="4.55442">
        <ele>947</ele>
        <time>2021-03-20T10:40:28Z</time>
      </trkpt>
      <trkpt lat="45.26926" lon="4.55401">
        <ele>952</ele>
        <time>2021-03-20T10:40:35Z</time>
      </trkpt>
      <trkpt lat="45.26906" lon="4.55316">
        <ele>960</ele>
        <time>2021-03-20T10:40:50Z</time>
      </trkpt>
      <trkpt lat="45.26867" lon="4.55157">
        <ele>967</ele>
        <time>2021-03-20T10:41:18Z</time>
      </trkpt>
      <trkpt lat="45.26849" lon="4.55138">
        <ele>968</ele>
        <time>2021-03-20T10:41:23Z</time>
      </trkpt>
      <trkpt lat="45.26799" lon="4.55098">
        <ele>970</ele>
        <time>2021-03-20T10:41:36Z</time>
      </trkpt>
      <trkpt lat="45.26757" lon="4.55041">
        <ele>978</ele>
        <time>2021-03-20T10:41:50Z</time>
      </trkpt>
      <trkpt lat="45.26745" lon="4.55029">
        <ele>979</ele>
        <time>2021-03-20T10:41:53Z</time>
      </trkpt>
      <trkpt lat="45.26701" lon="4.55005">
        <ele>976</ele>
        <time>2021-03-20T10:42:04Z</time>
      </trkpt>
      <trkpt lat="45.2669" lon="4.54993">
        <ele>976</ele>
        <time>2021-03-20T10:42:08Z</time>
      </trkpt>
      <trkpt lat="45.26678" lon="4.5497">
        <ele>977</ele>
        <time>2021-03-20T10:42:12Z</time>
      </trkpt>
      <trkpt lat="45.26659" lon="4.54909">
        <ele>981</ele>
        <time>2021-03-20T10:42:23Z</time>
      </trkpt>
      <trkpt lat="45.26621" lon="4.54836">
        <ele>986</ele>
        <time>2021-03-20T10:42:38Z</time>
      </trkpt>
      <trkpt lat="45.26596" lon="4.54797">
        <ele>986</ele>
        <time>2021-03-20T10:42:47Z</time>
      </trkpt>
      <trkpt lat="45.26585" lon="4.54773">
        <ele>988</ele>
        <time>2021-03-20T10:42:52Z</time>
      </trkpt>
      <trkpt lat="45.26567" lon="4.54697">
        <ele>992</ele>
        <time>2021-03-20T10:43:05Z</time>
      </trkpt>
      <trkpt lat="45.26556" lon="4.54669">
        <ele>994</ele>
        <time>2021-03-20T10:43:10Z</time>
      </trkpt>
      <trkpt lat="45.26532" lon="4.54637">
        <ele>994</ele>
        <time>2021-03-20T10:43:18Z</time>
      </trkpt>
      <trkpt lat="45.265" lon="4.54619">
        <ele>994</ele>
        <time>2021-03-20T10:43:26Z</time>
      </trkpt>
      <trkpt lat="45.26429" lon="4.54589">
        <ele>996</ele>
        <time>2021-03-20T10:43:43Z</time>
      </trkpt>
      <trkpt lat="45.26412" lon="4.54574">
        <ele>996</ele>
        <time>2021-03-20T10:43:48Z</time>
      </trkpt>
      <trkpt lat="45.2634" lon="4.54526">
        <ele>1000</ele>
        <time>2021-03-20T10:44:06Z</time>
      </trkpt>
      <trkpt lat="45.26283" lon="4.54523">
        <ele>1004</ele>
        <time>2021-03-20T10:44:20Z</time>
      </trkpt>
      <trkpt lat="45.26229" lon="4.54498">
        <ele>1009</ele>
        <time>2021-03-20T10:44:33Z</time>
      </trkpt>
      <trkpt lat="45.26174" lon="4.54477">
        <ele>1014</ele>
        <time>2021-03-20T10:44:46Z</time>
      </trkpt>
      <trkpt lat="45.26092" lon="4.54463">
        <ele>1018</ele>
        <time>2021-03-20T10:45:05Z</time>
      </trkpt>
      <trkpt lat="45.26066" lon="4.54454">
        <ele>1017</ele>
        <time>2021-03-20T10:45:12Z</time>
      </trkpt>
      <trkpt lat="45.25977" lon="4.54352">
        <ele>1021</ele>
        <time>2021-03-20T10:45:38Z</time>
      </trkpt>
      <trkpt lat="45.25944" lon="4.54319">
        <ele>1022</ele>
        <time>2021-03-20T10:45:48Z</time>
      </trkpt>
      <trkpt lat="45.25898" lon="4.54258">
        <ele>1023</ele>
        <time>2021-03-20T10:46:03Z</time>
      </trkpt>
      <trkpt lat="45.25871" lon="4.54188">
        <ele>1027</ele>
        <time>2021-03-20T10:46:16Z</time>
      </trkpt>
      <trkpt lat="45.25813" lon="4.54018">
        <ele>1036</ele>
        <time>2021-03-20T10:46:47Z</time>
      </trkpt>
      <trkpt lat="45.25769" lon="4.53895">
        <ele>1040</ele>
        <time>2021-03-20T10:47:09Z</time>
      </trkpt>
      <trkpt lat="45.25766" lon="4.53882">
        <ele>1040</ele>
        <time>2021-03-20T10:47:12Z</time>
      </trkpt>
      <trkpt lat="45.2576" lon="4.53876">
        <ele>1040</ele>
        <time>2021-03-20T10:47:13Z</time>
      </trkpt>
      <trkpt lat="45.25747" lon="4.5387">
        <ele>1041</ele>
        <time>2021-03-20T10:47:17Z</time>
      </trkpt>
      <trkpt lat="45.25728" lon="4.5387">
        <ele>1043</ele>
        <time>2021-03-20T10:47:21Z</time>
      </trkpt>
      <trkpt lat="45.25691" lon="4.53879">
        <ele>1047</ele>
        <time>2021-03-20T10:47:30Z</time>
      </trkpt>
      <trkpt lat="45.25611" lon="4.53883">
        <ele>1061</ele>
        <time>2021-03-20T10:47:48Z</time>
      </trkpt>
      <trkpt lat="45.25527" lon="4.53893">
        <ele>1073</ele>
        <time>2021-03-20T10:48:08Z</time>
      </trkpt>
      <trkpt lat="45.25491" lon="4.53901">
        <ele>1078</ele>
        <time>2021-03-20T10:48:17Z</time>
      </trkpt>
      <trkpt lat="45.25465" lon="4.53912">
        <ele>1082</ele>
        <time>2021-03-20T10:48:23Z</time>
      </trkpt>
      <trkpt lat="45.25446" lon="4.53926">
        <ele>1084</ele>
        <time>2021-03-20T10:48:28Z</time>
      </trkpt>
      <trkpt lat="45.25412" lon="4.53947">
        <ele>1087</ele>
        <time>2021-03-20T10:48:37Z</time>
      </trkpt>
      <trkpt lat="45.25362" lon="4.53959">
        <ele>1093</ele>
        <time>2021-03-20T10:48:48Z</time>
      </trkpt>
      <trkpt lat="45.25332" lon="4.53962">
        <ele>1096</ele>
        <time>2021-03-20T10:48:56Z</time>
      </trkpt>
      <trkpt lat="45.25316" lon="4.53959">
        <ele>1096</ele>
        <time>2021-03-20T10:48:59Z</time>
      </trkpt>
      <trkpt lat="45.25269" lon="4.53942">
        <ele>1099</ele>
        <time>2021-03-20T10:49:11Z</time>
      </trkpt>
      <trkpt lat="45.25225" lon="4.53907">
        <ele>1107</ele>
        <time>2021-03-20T10:49:22Z</time>
      </trkpt>
      <trkpt lat="45.25198" lon="4.53891">
        <ele>1111</ele>
        <time>2021-03-20T10:49:29Z</time>
      </trkpt>
      <trkpt lat="45.25107" lon="4.53819">
        <ele>1123</ele>
        <time>2021-03-20T10:49:54Z</time>
      </trkpt>
      <trkpt lat="45.25039" lon="4.53754">
        <ele>1128</ele>
        <time>2021-03-20T10:50:13Z</time>
      </trkpt>
      <trkpt lat="45.24994" lon="4.53682">
        <ele>1134</ele>
        <time>2021-03-20T10:50:29Z</time>
      </trkpt>
      <trkpt lat="45.24934" lon="4.53631">
        <ele>1139</ele>
        <time>2021-03-20T10:50:45Z</time>
      </trkpt>
      <trkpt lat="45.2491" lon="4.53595">
        <ele>1145</ele>
        <time>2021-03-20T10:50:53Z</time>
      </trkpt>
      <trkpt lat="45.24931" lon="4.53587">
        <ele>1148</ele>
        <time>2021-03-20T10:50:58Z</time>
      </trkpt>
      <trkpt lat="45.24958" lon="4.53585">
        <ele>1149</ele>
        <time>2021-03-20T10:51:04Z</time>
      </trkpt>
      <trkpt lat="45.25003" lon="4.53587">
        <ele>1150</ele>
        <time>2021-03-20T10:51:15Z</time>
      </trkpt>
      <trkpt lat="45.25015" lon="4.5358">
        <ele>1151</ele>
        <time>2021-03-20T10:51:18Z</time>
      </trkpt>
      <trkpt lat="45.25022" lon="4.53566">
        <ele>1153</ele>
        <time>2021-03-20T10:51:21Z</time>
      </trkpt>
      <trkpt lat="45.25029" lon="4.53538">
        <ele>1155</ele>
        <time>2021-03-20T10:51:26Z</time>
      </trkpt>
      <trkpt lat="45.25038" lon="4.53515">
        <ele>1157</ele>
        <time>2021-03-20T10:51:30Z</time>
      </trkpt>
      <trkpt lat="45.25061" lon="4.53468">
        <ele>1161</ele>
        <time>2021-03-20T10:51:39Z</time>
      </trkpt>
      <trkpt lat="45.25067" lon="4.53445">
        <ele>1163</ele>
        <time>2021-03-20T10:51:43Z</time>
      </trkpt>
      <trkpt lat="45.25066" lon="4.5342">
        <ele>1165</ele>
        <time>2021-03-20T10:51:48Z</time>
      </trkpt>
      <trkpt lat="45.25061" lon="4.53394">
        <ele>1167</ele>
        <time>2021-03-20T10:51:52Z</time>
      </trkpt>
      <trkpt lat="45.25056" lon="4.53351">
        <ele>1170</ele>
        <time>2021-03-20T10:51:59Z</time>
      </trkpt>
      <trkpt lat="45.25055" lon="4.53213">
        <ele>1175</ele>
        <time>2021-03-20T10:52:22Z</time>
      </trkpt>
      <trkpt lat="45.25067" lon="4.53102">
        <ele>1181</ele>
        <time>2021-03-20T10:52:40Z</time>
      </trkpt>
      <trkpt lat="45.25083" lon="4.53042">
        <ele>1184</ele>
        <time>2021-03-20T10:52:51Z</time>
      </trkpt>
      <trkpt lat="45.25088" lon="4.52999">
        <ele>1186</ele>
        <time>2021-03-20T10:52:58Z</time>
      </trkpt>
      <trkpt lat="45.25093" lon="4.52976">
        <ele>1186</ele>
        <time>2021-03-20T10:53:02Z</time>
      </trkpt>
      <trkpt lat="45.25111" lon="4.52935">
        <ele>1184</ele>
        <time>2021-03-20T10:53:10Z</time>
      </trkpt>
      <trkpt lat="45.25128" lon="4.52903">
        <ele>1183</ele>
        <time>2021-03-20T10:53:16Z</time>
      </trkpt>
      <trkpt lat="45.25137" lon="4.52878">
        <ele>1183</ele>
        <time>2021-03-20T10:53:21Z</time>
      </trkpt>
      <trkpt lat="45.25136" lon="4.52823">
        <ele>1185</ele>
        <time>2021-03-20T10:53:30Z</time>
      </trkpt>
      <trkpt lat="45.25139" lon="4.52804">
        <ele>1185</ele>
        <time>2021-03-20T10:53:33Z</time>
      </trkpt>
      <trkpt lat="45.25152" lon="4.52766">
        <ele>1187</ele>
        <time>2021-03-20T10:53:40Z</time>
      </trkpt>
      <trkpt lat="45.25175" lon="4.52694">
        <ele>1187</ele>
        <time>2021-03-20T10:53:53Z</time>
      </trkpt>
      <trkpt lat="45.25185" lon="4.52667">
        <ele>1187</ele>
        <time>2021-03-20T10:53:58Z</time>
      </trkpt>
      <trkpt lat="45.25199" lon="4.52645">
        <ele>1187</ele>
        <time>2021-03-20T10:54:03Z</time>
      </trkpt>
      <trkpt lat="45.25217" lon="4.52624">
        <ele>1187</ele>
        <time>2021-03-20T10:54:09Z</time>
      </trkpt>
      <trkpt lat="45.25255" lon="4.52592">
        <ele>1187</ele>
        <time>2021-03-20T10:54:19Z</time>
      </trkpt>
      <trkpt lat="45.25296" lon="4.52565">
        <ele>1188</ele>
        <time>2021-03-20T10:54:29Z</time>
      </trkpt>
      <trkpt lat="45.25325" lon="4.52548">
        <ele>1190</ele>
        <time>2021-03-20T10:54:37Z</time>
      </trkpt>
      <trkpt lat="45.25376" lon="4.52533">
        <ele>1194</ele>
        <time>2021-03-20T10:54:49Z</time>
      </trkpt>
      <trkpt lat="45.25435" lon="4.52511">
        <ele>1196</ele>
        <time>2021-03-20T10:55:03Z</time>
      </trkpt>
      <trkpt lat="45.25477" lon="4.525">
        <ele>1194</ele>
        <time>2021-03-20T10:55:13Z</time>
      </trkpt>
      <trkpt lat="45.25505" lon="4.52486">
        <ele>1191</ele>
        <time>2021-03-20T10:55:20Z</time>
      </trkpt>
      <trkpt lat="45.25532" lon="4.52463">
        <ele>1187</ele>
        <time>2021-03-20T10:55:27Z</time>
      </trkpt>
      <trkpt lat="45.25557" lon="4.52436">
        <ele>1183</ele>
        <time>2021-03-20T10:55:35Z</time>
      </trkpt>
      <trkpt lat="45.2557" lon="4.52402">
        <ele>1181</ele>
        <time>2021-03-20T10:55:41Z</time>
      </trkpt>
      <trkpt lat="45.25583" lon="4.52353">
        <ele>1181</ele>
        <time>2021-03-20T10:55:50Z</time>
      </trkpt>
      <trkpt lat="45.25588" lon="4.52321">
        <ele>1182</ele>
        <time>2021-03-20T10:55:55Z</time>
      </trkpt>
      <trkpt lat="45.25592" lon="4.52272">
        <ele>1185</ele>
        <time>2021-03-20T10:56:03Z</time>
      </trkpt>
      <trkpt lat="45.25596" lon="4.52234">
        <ele>1186</ele>
        <time>2021-03-20T10:56:10Z</time>
      </trkpt>
      <trkpt lat="45.25607" lon="4.52162">
        <ele>1186</ele>
        <time>2021-03-20T10:56:22Z</time>
      </trkpt>
      <trkpt lat="45.25611" lon="4.5211">
        <ele>1184</ele>
        <time>2021-03-20T10:56:30Z</time>
      </trkpt>
      <trkpt lat="45.25609" lon="4.52071">
        <ele>1184</ele>
        <time>2021-03-20T10:56:37Z</time>
      </trkpt>
      <trkpt lat="45.25558" lon="4.51833">
        <ele>1189</ele>
        <time>2021-03-20T10:57:18Z</time>
      </trkpt>
      <trkpt lat="45.25541" lon="4.51767">
        <ele>1195</ele>
        <time>2021-03-20T10:57:29Z</time>
      </trkpt>
      <trkpt lat="45.25535" lon="4.51741">
        <ele>1198</ele>
        <time>2021-03-20T10:57:34Z</time>
      </trkpt>
      <trkpt lat="45.25531" lon="4.51644">
        <ele>1205</ele>
        <time>2021-03-20T10:57:50Z</time>
      </trkpt>
      <trkpt lat="45.25534" lon="4.5161">
        <ele>1207</ele>
        <time>2021-03-20T10:57:55Z</time>
      </trkpt>
      <trkpt lat="45.25545" lon="4.51555">
        <ele>1206</ele>
        <time>2021-03-20T10:58:05Z</time>
      </trkpt>
      <trkpt lat="45.25537" lon="4.51397">
        <ele>1209</ele>
        <time>2021-03-20T10:58:31Z</time>
      </trkpt>
      <trkpt lat="45.25517" lon="4.51355">
        <ele>1212</ele>
        <time>2021-03-20T10:58:39Z</time>
      </trkpt>
      <trkpt lat="45.25493" lon="4.51299">
        <ele>1214</ele>
        <time>2021-03-20T10:58:50Z</time>
      </trkpt>
      <trkpt lat="45.25469" lon="4.51256">
        <ele>1215</ele>
        <time>2021-03-20T10:58:59Z</time>
      </trkpt>
      <trkpt lat="45.25432" lon="4.51215">
        <ele>1219</ele>
        <time>2021-03-20T10:59:10Z</time>
      </trkpt>
      <trkpt lat="45.25407" lon="4.51183">
        <ele>1222</ele>
        <time>2021-03-20T10:59:18Z</time>
      </trkpt>
      <trkpt lat="45.25382" lon="4.51135">
        <ele>1224</ele>
        <time>2021-03-20T10:59:27Z</time>
      </trkpt>
      <trkpt lat="45.25364" lon="4.51069">
        <ele>1221</ele>
        <time>2021-03-20T10:59:39Z</time>
      </trkpt>
      <trkpt lat="45.25349" lon="4.5102">
        <ele>1219</ele>
        <time>2021-03-20T10:59:48Z</time>
      </trkpt>
      <trkpt lat="45.2533" lon="4.50968">
        <ele>1217</ele>
        <time>2021-03-20T10:59:58Z</time>
      </trkpt>
      <trkpt lat="45.25314" lon="4.5092">
        <ele>1214</ele>
        <time>2021-03-20T11:00:06Z</time>
      </trkpt>
      <trkpt lat="45.25311" lon="4.50884">
        <ele>1213</ele>
        <time>2021-03-20T11:00:12Z</time>
      </trkpt>
      <trkpt lat="45.25316" lon="4.50843">
        <ele>1212</ele>
        <time>2021-03-20T11:00:19Z</time>
      </trkpt>
      <trkpt lat="45.25333" lon="4.50806">
        <ele>1211</ele>
        <time>2021-03-20T11:00:26Z</time>
      </trkpt>
      <trkpt lat="45.25363" lon="4.50772">
        <ele>1208</ele>
        <time>2021-03-20T11:00:35Z</time>
      </trkpt>
      <trkpt lat="45.25396" lon="4.50743">
        <ele>1204</ele>
        <time>2021-03-20T11:00:44Z</time>
      </trkpt>
      <trkpt lat="45.25416" lon="4.50711">
        <ele>1202</ele>
        <time>2021-03-20T11:00:51Z</time>
      </trkpt>
      <trkpt lat="45.25432" lon="4.5068">
        <ele>1201</ele>
        <time>2021-03-20T11:00:58Z</time>
      </trkpt>
      <trkpt lat="45.25443" lon="4.5064">
        <ele>1199</ele>
        <time>2021-03-20T11:01:05Z</time>
      </trkpt>
      <trkpt lat="45.25444" lon="4.50598">
        <ele>1198</ele>
        <time>2021-03-20T11:01:12Z</time>
      </trkpt>
      <trkpt lat="45.25435" lon="4.50545">
        <ele>1194</ele>
        <time>2021-03-20T11:01:21Z</time>
      </trkpt>
      <trkpt lat="45.25429" lon="4.50536">
        <ele>1194</ele>
        <time>2021-03-20T11:01:23Z</time>
      </trkpt>
      <trkpt lat="45.2543" lon="4.50523">
        <ele>1192</ele>
        <time>2021-03-20T11:01:25Z</time>
      </trkpt>
      <trkpt lat="45.2542" lon="4.50507">
        <ele>1192</ele>
        <time>2021-03-20T11:01:28Z</time>
      </trkpt>
      <trkpt lat="45.2538" lon="4.50454">
        <ele>1192</ele>
        <time>2021-03-20T11:01:41Z</time>
      </trkpt>
      <trkpt lat="45.25354" lon="4.5043">
        <ele>1192</ele>
        <time>2021-03-20T11:01:48Z</time>
      </trkpt>
      <trkpt lat="45.25314" lon="4.50408">
        <ele>1196</ele>
        <time>2021-03-20T11:01:58Z</time>
      </trkpt>
      <trkpt lat="45.25283" lon="4.50382">
        <ele>1199</ele>
        <time>2021-03-20T11:02:07Z</time>
      </trkpt>
      <trkpt lat="45.25265" lon="4.50339">
        <ele>1196</ele>
        <time>2021-03-20T11:02:15Z</time>
      </trkpt>
      <trkpt lat="45.25248" lon="4.50268">
        <ele>1191</ele>
        <time>2021-03-20T11:02:27Z</time>
      </trkpt>
      <trkpt lat="45.25233" lon="4.50221">
        <ele>1187</ele>
        <time>2021-03-20T11:02:36Z</time>
      </trkpt>
      <trkpt lat="45.252" lon="4.50165">
        <ele>1183</ele>
        <time>2021-03-20T11:02:48Z</time>
      </trkpt>
      <trkpt lat="45.2518" lon="4.50155">
        <ele>1184</ele>
        <time>2021-03-20T11:02:53Z</time>
      </trkpt>
      <trkpt lat="45.25164" lon="4.5014">
        <ele>1184</ele>
        <time>2021-03-20T11:02:57Z</time>
      </trkpt>
      <trkpt lat="45.2511" lon="4.50123">
        <ele>1178</ele>
        <time>2021-03-20T11:03:10Z</time>
      </trkpt>
      <trkpt lat="45.25021" lon="4.50125">
        <ele>1172</ele>
        <time>2021-03-20T11:03:31Z</time>
      </trkpt>
      <trkpt lat="45.24989" lon="4.50122">
        <ele>1172</ele>
        <time>2021-03-20T11:03:38Z</time>
      </trkpt>
      <trkpt lat="45.24974" lon="4.50129">
        <ele>1176</ele>
        <time>2021-03-20T11:03:42Z</time>
      </trkpt>
      <trkpt lat="45.24962" lon="4.5013">
        <ele>1178</ele>
        <time>2021-03-20T11:03:45Z</time>
      </trkpt>
      <trkpt lat="45.24952" lon="4.50117">
        <ele>1180</ele>
        <time>2021-03-20T11:03:48Z</time>
      </trkpt>
      <trkpt lat="45.24952" lon="4.50108">
        <ele>1180</ele>
        <time>2021-03-20T11:03:50Z</time>
      </trkpt>
      <trkpt lat="45.24953" lon="4.50095">
        <ele>1179</ele>
        <time>2021-03-20T11:03:52Z</time>
      </trkpt>
      <trkpt lat="45.24964" lon="4.50064">
        <ele>1176</ele>
        <time>2021-03-20T11:03:57Z</time>
      </trkpt>
      <trkpt lat="45.24994" lon="4.50019">
        <ele>1163</ele>
        <time>2021-03-20T11:04:08Z</time>
      </trkpt>
      <trkpt lat="45.25059" lon="4.49786">
        <ele>1140</ele>
        <time>2021-03-20T11:04:49Z</time>
      </trkpt>
      <trkpt lat="45.25067" lon="4.49712">
        <ele>1134</ele>
        <time>2021-03-20T11:05:01Z</time>
      </trkpt>
      <trkpt lat="45.25084" lon="4.49595">
        <ele>1131</ele>
        <time>2021-03-20T11:05:21Z</time>
      </trkpt>
      <trkpt lat="45.251" lon="4.49577">
        <ele>1127</ele>
        <time>2021-03-20T11:05:26Z</time>
      </trkpt>
      <trkpt lat="45.25163" lon="4.49484">
        <ele>1114</ele>
        <time>2021-03-20T11:05:47Z</time>
      </trkpt>
      <trkpt lat="45.25205" lon="4.49423">
        <ele>1102</ele>
        <time>2021-03-20T11:06:01Z</time>
      </trkpt>
      <trkpt lat="45.25252" lon="4.49343">
        <ele>1096</ele>
        <time>2021-03-20T11:06:18Z</time>
      </trkpt>
      <trkpt lat="45.25311" lon="4.49245">
        <ele>1085</ele>
        <time>2021-03-20T11:06:39Z</time>
      </trkpt>
      <trkpt lat="45.25339" lon="4.49204">
        <ele>1077</ele>
        <time>2021-03-20T11:06:49Z</time>
      </trkpt>
      <trkpt lat="45.25372" lon="4.49167">
        <ele>1070</ele>
        <time>2021-03-20T11:06:58Z</time>
      </trkpt>
      <trkpt lat="45.25418" lon="4.49109">
        <ele>1056</ele>
        <time>2021-03-20T11:07:13Z</time>
      </trkpt>
      <trkpt lat="45.25427" lon="4.49075">
        <ele>1054</ele>
        <time>2021-03-20T11:07:19Z</time>
      </trkpt>
      <trkpt lat="45.25427" lon="4.49047">
        <ele>1051</ele>
        <time>2021-03-20T11:07:23Z</time>
      </trkpt>
      <trkpt lat="45.25422" lon="4.49007">
        <ele>1047</ele>
        <time>2021-03-20T11:07:30Z</time>
      </trkpt>
      <trkpt lat="45.25409" lon="4.48973">
        <ele>1045</ele>
        <time>2021-03-20T11:07:36Z</time>
      </trkpt>
      <trkpt lat="45.25375" lon="4.48926">
        <ele>1046</ele>
        <time>2021-03-20T11:07:47Z</time>
      </trkpt>
      <trkpt lat="45.25333" lon="4.48882">
        <ele>1046</ele>
        <time>2021-03-20T11:08:00Z</time>
      </trkpt>
      <trkpt lat="45.25282" lon="4.48809">
        <ele>1033</ele>
        <time>2021-03-20T11:08:17Z</time>
      </trkpt>
      <trkpt lat="45.25246" lon="4.48786">
        <ele>1033</ele>
        <time>2021-03-20T11:08:26Z</time>
      </trkpt>
      <trkpt lat="45.25215" lon="4.48773">
        <ele>1038</ele>
        <time>2021-03-20T11:08:33Z</time>
      </trkpt>
      <trkpt lat="45.25202" lon="4.48752">
        <ele>1037</ele>
        <time>2021-03-20T11:08:38Z</time>
      </trkpt>
      <trkpt lat="45.25208" lon="4.4871">
        <ele>1031</ele>
        <time>2021-03-20T11:08:45Z</time>
      </trkpt>
      <trkpt lat="45.25225" lon="4.48663">
        <ele>1018</ele>
        <time>2021-03-20T11:08:54Z</time>
      </trkpt>
      <trkpt lat="45.25233" lon="4.48611">
        <ele>1010</ele>
        <time>2021-03-20T11:09:02Z</time>
      </trkpt>
      <trkpt lat="45.25226" lon="4.48555">
        <ele>1009</ele>
        <time>2021-03-20T11:09:12Z</time>
      </trkpt>
      <trkpt lat="45.25221" lon="4.48487">
        <ele>1004</ele>
        <time>2021-03-20T11:09:23Z</time>
      </trkpt>
      <trkpt lat="45.25221" lon="4.48433">
        <ele>997</ele>
        <time>2021-03-20T11:09:32Z</time>
      </trkpt>
      <trkpt lat="45.25213" lon="4.48387">
        <ele>996</ele>
        <time>2021-03-20T11:09:40Z</time>
      </trkpt>
      <trkpt lat="45.25203" lon="4.48353">
        <ele>996</ele>
        <time>2021-03-20T11:09:46Z</time>
      </trkpt>
      <trkpt lat="45.25192" lon="4.4829">
        <ele>997</ele>
        <time>2021-03-20T11:09:56Z</time>
      </trkpt>
      <trkpt lat="45.25185" lon="4.48223">
        <ele>998</ele>
        <time>2021-03-20T11:10:07Z</time>
      </trkpt>
      <trkpt lat="45.25188" lon="4.48192">
        <ele>999</ele>
        <time>2021-03-20T11:10:13Z</time>
      </trkpt>
      <trkpt lat="45.25196" lon="4.48187">
        <ele>1000</ele>
        <time>2021-03-20T11:10:15Z</time>
      </trkpt>
      <trkpt lat="45.25212" lon="4.48194">
        <ele>1002</ele>
        <time>2021-03-20T11:10:19Z</time>
      </trkpt>
      <trkpt lat="45.25332" lon="4.48341">
        <ele>982</ele>
        <time>2021-03-20T11:10:56Z</time>
      </trkpt>
      <trkpt lat="45.25347" lon="4.48372">
        <ele>979</ele>
        <time>2021-03-20T11:11:02Z</time>
      </trkpt>
      <trkpt lat="45.25355" lon="4.48431">
        <ele>970</ele>
        <time>2021-03-20T11:11:12Z</time>
      </trkpt>
      <trkpt lat="45.2536" lon="4.48439">
        <ele>970</ele>
        <time>2021-03-20T11:11:13Z</time>
      </trkpt>
      <trkpt lat="45.25365" lon="4.48447">
        <ele>970</ele>
        <time>2021-03-20T11:11:15Z</time>
      </trkpt>
      <trkpt lat="45.25373" lon="4.48441">
        <ele>972</ele>
        <time>2021-03-20T11:11:17Z</time>
      </trkpt>
      <trkpt lat="45.25386" lon="4.4844">
        <ele>973</ele>
        <time>2021-03-20T11:11:20Z</time>
      </trkpt>
      <trkpt lat="45.254" lon="4.48432">
        <ele>977</ele>
        <time>2021-03-20T11:11:24Z</time>
      </trkpt>
      <trkpt lat="45.25415" lon="4.48419">
        <ele>982</ele>
        <time>2021-03-20T11:11:28Z</time>
      </trkpt>
      <trkpt lat="45.25444" lon="4.48398">
        <ele>985</ele>
        <time>2021-03-20T11:11:36Z</time>
      </trkpt>
      <trkpt lat="45.25462" lon="4.48389">
        <ele>985</ele>
        <time>2021-03-20T11:11:40Z</time>
      </trkpt>
      <trkpt lat="45.25473" lon="4.48381">
        <ele>986</ele>
        <time>2021-03-20T11:11:43Z</time>
      </trkpt>
      <trkpt lat="45.25487" lon="4.48373">
        <ele>986</ele>
        <time>2021-03-20T11:11:46Z</time>
      </trkpt>
      <trkpt lat="45.25522" lon="4.48322">
        <ele>991</ele>
        <time>2021-03-20T11:11:58Z</time>
      </trkpt>
      <trkpt lat="45.25551" lon="4.483">
        <ele>988</ele>
        <time>2021-03-20T11:12:06Z</time>
      </trkpt>
      <trkpt lat="45.25565" lon="4.48284">
        <ele>988</ele>
        <time>2021-03-20T11:12:10Z</time>
      </trkpt>
      <trkpt lat="45.25585" lon="4.48242">
        <ele>991</ele>
        <time>2021-03-20T11:12:18Z</time>
      </trkpt>
      <trkpt lat="45.25609" lon="4.48175">
        <ele>990</ele>
        <time>2021-03-20T11:12:31Z</time>
      </trkpt>
      <trkpt lat="45.25618" lon="4.48132">
        <ele>989</ele>
        <time>2021-03-20T11:12:38Z</time>
      </trkpt>
      <trkpt lat="45.25624" lon="4.48089">
        <ele>989</ele>
        <time>2021-03-20T11:12:45Z</time>
      </trkpt>
      <trkpt lat="45.25625" lon="4.48041">
        <ele>988</ele>
        <time>2021-03-20T11:12:53Z</time>
      </trkpt>
      <trkpt lat="45.25621" lon="4.48001">
        <ele>988</ele>
        <time>2021-03-20T11:13:00Z</time>
      </trkpt>
      <trkpt lat="45.25613" lon="4.47966">
        <ele>988</ele>
        <time>2021-03-20T11:13:06Z</time>
      </trkpt>
      <trkpt lat="45.25601" lon="4.47929">
        <ele>989</ele>
        <time>2021-03-20T11:13:13Z</time>
      </trkpt>
      <trkpt lat="45.25599" lon="4.47907">
        <ele>988</ele>
        <time>2021-03-20T11:13:16Z</time>
      </trkpt>
      <trkpt lat="45.25591" lon="4.47792">
        <ele>981</ele>
        <time>2021-03-20T11:13:35Z</time>
      </trkpt>
      <trkpt lat="45.25585" lon="4.47758">
        <ele>979</ele>
        <time>2021-03-20T11:13:41Z</time>
      </trkpt>
      <trkpt lat="45.25578" lon="4.47742">
        <ele>977</ele>
        <time>2021-03-20T11:13:44Z</time>
      </trkpt>
      <trkpt lat="45.25565" lon="4.4772">
        <ele>974</ele>
        <time>2021-03-20T11:13:49Z</time>
      </trkpt>
      <trkpt lat="45.25554" lon="4.4771">
        <ele>974</ele>
        <time>2021-03-20T11:13:52Z</time>
      </trkpt>
      <trkpt lat="45.25537" lon="4.47699">
        <ele>973</ele>
        <time>2021-03-20T11:13:56Z</time>
      </trkpt>
      <trkpt lat="45.25504" lon="4.47692">
        <ele>974</ele>
        <time>2021-03-20T11:14:04Z</time>
      </trkpt>
      <trkpt lat="45.25454" lon="4.47694">
        <ele>979</ele>
        <time>2021-03-20T11:14:16Z</time>
      </trkpt>
      <trkpt lat="45.25396" lon="4.477">
        <ele>986</ele>
        <time>2021-03-20T11:14:29Z</time>
      </trkpt>
      <trkpt lat="45.25375" lon="4.47698">
        <ele>988</ele>
        <time>2021-03-20T11:14:34Z</time>
      </trkpt>
      <trkpt lat="45.25347" lon="4.47692">
        <ele>990</ele>
        <time>2021-03-20T11:14:41Z</time>
      </trkpt>
      <trkpt lat="45.25339" lon="4.47686">
        <ele>990</ele>
        <time>2021-03-20T11:14:43Z</time>
      </trkpt>
      <trkpt lat="45.25334" lon="4.47676">
        <ele>988</ele>
        <time>2021-03-20T11:14:45Z</time>
      </trkpt>
      <trkpt lat="45.25332" lon="4.47662">
        <ele>987</ele>
        <time>2021-03-20T11:14:47Z</time>
      </trkpt>
      <trkpt lat="45.25338" lon="4.47651">
        <ele>987</ele>
        <time>2021-03-20T11:14:50Z</time>
      </trkpt>
      <trkpt lat="45.25388" lon="4.47594">
        <ele>981</ele>
        <time>2021-03-20T11:15:05Z</time>
      </trkpt>
      <trkpt lat="45.25436" lon="4.47536">
        <ele>976</ele>
        <time>2021-03-20T11:15:19Z</time>
      </trkpt>
      <trkpt lat="45.25551" lon="4.47387">
        <ele>961</ele>
        <time>2021-03-20T11:15:56Z</time>
      </trkpt>
      <trkpt lat="45.25558" lon="4.47368">
        <ele>961</ele>
        <time>2021-03-20T11:15:59Z</time>
      </trkpt>
      <trkpt lat="45.25566" lon="4.47336">
        <ele>963</ele>
        <time>2021-03-20T11:16:05Z</time>
      </trkpt>
      <trkpt lat="45.25569" lon="4.47314">
        <ele>962</ele>
        <time>2021-03-20T11:16:08Z</time>
      </trkpt>
      <trkpt lat="45.25571" lon="4.47267">
        <ele>961</ele>
        <time>2021-03-20T11:16:16Z</time>
      </trkpt>
      <trkpt lat="45.25574" lon="4.47246">
        <ele>959</ele>
        <time>2021-03-20T11:16:20Z</time>
      </trkpt>
      <trkpt lat="45.25583" lon="4.47217">
        <ele>958</ele>
        <time>2021-03-20T11:16:25Z</time>
      </trkpt>
      <trkpt lat="45.25592" lon="4.47193">
        <ele>956</ele>
        <time>2021-03-20T11:16:29Z</time>
      </trkpt>
      <trkpt lat="45.25605" lon="4.4717">
        <ele>953</ele>
        <time>2021-03-20T11:16:34Z</time>
      </trkpt>
      <trkpt lat="45.25622" lon="4.47149">
        <ele>947</ele>
        <time>2021-03-20T11:16:39Z</time>
      </trkpt>
      <trkpt lat="45.25636" lon="4.47137">
        <ele>942</ele>
        <time>2021-03-20T11:16:43Z</time>
      </trkpt>
      <trkpt lat="45.25641" lon="4.47129">
        <ele>940</ele>
        <time>2021-03-20T11:16:45Z</time>
      </trkpt>
      <trkpt lat="45.25646" lon="4.47117">
        <ele>938</ele>
        <time>2021-03-20T11:16:47Z</time>
      </trkpt>
      <trkpt lat="45.2565" lon="4.47068">
        <ele>938</ele>
        <time>2021-03-20T11:16:55Z</time>
      </trkpt>
      <trkpt lat="45.25638" lon="4.46975">
        <ele>943</ele>
        <time>2021-03-20T11:17:11Z</time>
      </trkpt>
      <trkpt lat="45.25625" lon="4.46906">
        <ele>943</ele>
        <time>2021-03-20T11:17:23Z</time>
      </trkpt>
      <trkpt lat="45.25617" lon="4.46874">
        <ele>944</ele>
        <time>2021-03-20T11:17:28Z</time>
      </trkpt>
      <trkpt lat="45.25601" lon="4.46848">
        <ele>947</ele>
        <time>2021-03-20T11:17:34Z</time>
      </trkpt>
      <trkpt lat="45.25565" lon="4.46801">
        <ele>954</ele>
        <time>2021-03-20T11:17:45Z</time>
      </trkpt>
      <trkpt lat="45.25562" lon="4.46785">
        <ele>952</ele>
        <time>2021-03-20T11:17:48Z</time>
      </trkpt>
      <trkpt lat="45.25562" lon="4.46771">
        <ele>950</ele>
        <time>2021-03-20T11:17:50Z</time>
      </trkpt>
      <trkpt lat="45.25572" lon="4.46733">
        <ele>942</ele>
        <time>2021-03-20T11:17:57Z</time>
      </trkpt>
      <trkpt lat="45.25575" lon="4.46703">
        <ele>940</ele>
        <time>2021-03-20T11:18:02Z</time>
      </trkpt>
      <trkpt lat="45.25538" lon="4.46607">
        <ele>947</ele>
        <time>2021-03-20T11:18:20Z</time>
      </trkpt>
      <trkpt lat="45.25536" lon="4.46573">
        <ele>946</ele>
        <time>2021-03-20T11:18:26Z</time>
      </trkpt>
      <trkpt lat="45.25547" lon="4.46522">
        <ele>943</ele>
        <time>2021-03-20T11:18:34Z</time>
      </trkpt>
      <trkpt lat="45.25548" lon="4.465">
        <ele>943</ele>
        <time>2021-03-20T11:18:38Z</time>
      </trkpt>
      <trkpt lat="45.25546" lon="4.46453">
        <ele>947</ele>
        <time>2021-03-20T11:18:46Z</time>
      </trkpt>
      <trkpt lat="45.25553" lon="4.46432">
        <ele>948</ele>
        <time>2021-03-20T11:18:50Z</time>
      </trkpt>
      <trkpt lat="45.25556" lon="4.46429">
        <ele>948</ele>
        <time>2021-03-20T11:18:50Z</time>
      </trkpt>
      <trkpt lat="45.25559" lon="4.46427">
        <ele>947</ele>
        <time>2021-03-20T11:18:51Z</time>
      </trkpt>
      <trkpt lat="45.25564" lon="4.4643">
        <ele>947</ele>
        <time>2021-03-20T11:18:52Z</time>
      </trkpt>
      <trkpt lat="45.25613" lon="4.46505">
        <ele>940</ele>
        <time>2021-03-20T11:19:09Z</time>
      </trkpt>
      <trkpt lat="45.2562" lon="4.465">
        <ele>942</ele>
        <time>2021-03-20T11:19:11Z</time>
      </trkpt>
      <trkpt lat="45.2563" lon="4.46505">
        <ele>943</ele>
        <time>2021-03-20T11:19:14Z</time>
      </trkpt>
      <trkpt lat="45.25682" lon="4.46588">
        <ele>936</ele>
        <time>2021-03-20T11:19:32Z</time>
      </trkpt>
      <trkpt lat="45.25708" lon="4.46615">
        <ele>938</ele>
        <time>2021-03-20T11:19:39Z</time>
      </trkpt>
      <trkpt lat="45.25724" lon="4.46637">
        <ele>938</ele>
        <time>2021-03-20T11:19:45Z</time>
      </trkpt>
      <trkpt lat="45.25766" lon="4.46709">
        <ele>938</ele>
        <time>2021-03-20T11:20:00Z</time>
      </trkpt>
      <trkpt lat="45.25862" lon="4.46851">
        <ele>944</ele>
        <time>2021-03-20T11:20:32Z</time>
      </trkpt>
      <trkpt lat="45.25888" lon="4.4688">
        <ele>944</ele>
        <time>2021-03-20T11:20:40Z</time>
      </trkpt>
      <trkpt lat="45.25897" lon="4.46885">
        <ele>945</ele>
        <time>2021-03-20T11:20:42Z</time>
      </trkpt>
      <trkpt lat="45.2591" lon="4.46888">
        <ele>947</ele>
        <time>2021-03-20T11:20:45Z</time>
      </trkpt>
      <trkpt lat="45.25923" lon="4.46887">
        <ele>951</ele>
        <time>2021-03-20T11:20:48Z</time>
      </trkpt>
      <trkpt lat="45.25946" lon="4.46877">
        <ele>958</ele>
        <time>2021-03-20T11:20:54Z</time>
      </trkpt>
      <trkpt lat="45.25952" lon="4.4687">
        <ele>960</ele>
        <time>2021-03-20T11:20:56Z</time>
      </trkpt>
      <trkpt lat="45.25956" lon="4.4686">
        <ele>963</ele>
        <time>2021-03-20T11:20:58Z</time>
      </trkpt>
      <trkpt lat="45.25954" lon="4.46843">
        <ele>965</ele>
        <time>2021-03-20T11:21:01Z</time>
      </trkpt>
      <trkpt lat="45.25945" lon="4.46831">
        <ele>966</ele>
        <time>2021-03-20T11:21:03Z</time>
      </trkpt>
      <trkpt lat="45.25937" lon="4.46826">
        <ele>966</ele>
        <time>2021-03-20T11:21:06Z</time>
      </trkpt>
      <trkpt lat="45.25918" lon="4.46821">
        <ele>964</ele>
        <time>2021-03-20T11:21:10Z</time>
      </trkpt>
      <trkpt lat="45.25889" lon="4.46807">
        <ele>960</ele>
        <time>2021-03-20T11:21:17Z</time>
      </trkpt>
      <trkpt lat="45.25871" lon="4.46791">
        <ele>959</ele>
        <time>2021-03-20T11:21:22Z</time>
      </trkpt>
      <trkpt lat="45.25854" lon="4.46765">
        <ele>960</ele>
        <time>2021-03-20T11:21:28Z</time>
      </trkpt>
      <trkpt lat="45.25847" lon="4.46751">
        <ele>961</ele>
        <time>2021-03-20T11:21:31Z</time>
      </trkpt>
      <trkpt lat="45.25836" lon="4.46701">
        <ele>964</ele>
        <time>2021-03-20T11:21:39Z</time>
      </trkpt>
      <trkpt lat="45.25833" lon="4.46644">
        <ele>968</ele>
        <time>2021-03-20T11:21:49Z</time>
      </trkpt>
      <trkpt lat="45.25837" lon="4.46595">
        <ele>973</ele>
        <time>2021-03-20T11:21:57Z</time>
      </trkpt>
      <trkpt lat="45.25829" lon="4.46558">
        <ele>976</ele>
        <time>2021-03-20T11:22:03Z</time>
      </trkpt>
      <trkpt lat="45.2582" lon="4.46528">
        <ele>980</ele>
        <time>2021-03-20T11:22:09Z</time>
      </trkpt>
      <trkpt lat="45.2575" lon="4.46398">
        <ele>990</ele>
        <time>2021-03-20T11:22:36Z</time>
      </trkpt>
      <trkpt lat="45.25727" lon="4.46373">
        <ele>990</ele>
        <time>2021-03-20T11:22:42Z</time>
      </trkpt>
      <trkpt lat="45.2569" lon="4.46348">
        <ele>988</ele>
        <time>2021-03-20T11:22:52Z</time>
      </trkpt>
      <trkpt lat="45.25659" lon="4.46322">
        <ele>988</ele>
        <time>2021-03-20T11:23:00Z</time>
      </trkpt>
      <trkpt lat="45.25626" lon="4.46267">
        <ele>992</ele>
        <time>2021-03-20T11:23:12Z</time>
      </trkpt>
      <trkpt lat="45.25601" lon="4.4619">
        <ele>999</ele>
        <time>2021-03-20T11:23:26Z</time>
      </trkpt>
      <trkpt lat="45.25582" lon="4.4614">
        <ele>1001</ele>
        <time>2021-03-20T11:23:35Z</time>
      </trkpt>
      <trkpt lat="45.25546" lon="4.46076">
        <ele>1004</ele>
        <time>2021-03-20T11:23:49Z</time>
      </trkpt>
      <trkpt lat="45.25529" lon="4.46044">
        <ele>1007</ele>
        <time>2021-03-20T11:23:55Z</time>
      </trkpt>
      <trkpt lat="45.25496" lon="4.45967">
        <ele>1014</ele>
        <time>2021-03-20T11:24:10Z</time>
      </trkpt>
      <trkpt lat="45.25485" lon="4.45949">
        <ele>1015</ele>
        <time>2021-03-20T11:24:14Z</time>
      </trkpt>
      <trkpt lat="45.25473" lon="4.45933">
        <ele>1016</ele>
        <time>2021-03-20T11:24:18Z</time>
      </trkpt>
      <trkpt lat="45.25351" lon="4.45805">
        <ele>1028</ele>
        <time>2021-03-20T11:24:53Z</time>
      </trkpt>
      <trkpt lat="45.25338" lon="4.45785">
        <ele>1027</ele>
        <time>2021-03-20T11:24:58Z</time>
      </trkpt>
      <trkpt lat="45.25331" lon="4.45766">
        <ele>1028</ele>
        <time>2021-03-20T11:25:01Z</time>
      </trkpt>
      <trkpt lat="45.25327" lon="4.45749">
        <ele>1029</ele>
        <time>2021-03-20T11:25:04Z</time>
      </trkpt>
      <trkpt lat="45.25326" lon="4.45729">
        <ele>1028</ele>
        <time>2021-03-20T11:25:08Z</time>
      </trkpt>
      <trkpt lat="45.25329" lon="4.45699">
        <ele>1025</ele>
        <time>2021-03-20T11:25:13Z</time>
      </trkpt>
      <trkpt lat="45.25334" lon="4.4568">
        <ele>1023</ele>
        <time>2021-03-20T11:25:16Z</time>
      </trkpt>
      <trkpt lat="45.25345" lon="4.45673">
        <ele>1026</ele>
        <time>2021-03-20T11:25:19Z</time>
      </trkpt>
      <trkpt lat="45.25352" lon="4.45665">
        <ele>1028</ele>
        <time>2021-03-20T11:25:21Z</time>
      </trkpt>
      <trkpt lat="45.25364" lon="4.45636">
        <ele>1028</ele>
        <time>2021-03-20T11:25:26Z</time>
      </trkpt>
      <trkpt lat="45.25365" lon="4.45653">
        <ele>1031</ele>
        <time>2021-03-20T11:25:29Z</time>
      </trkpt>
      <trkpt lat="45.25358" lon="4.45682">
        <ele>1030</ele>
        <time>2021-03-20T11:25:34Z</time>
      </trkpt>
      <trkpt lat="45.25362" lon="4.45705">
        <ele>1032</ele>
        <time>2021-03-20T11:25:38Z</time>
      </trkpt>
      <trkpt lat="45.25375" lon="4.4574">
        <ele>1036</ele>
        <time>2021-03-20T11:25:45Z</time>
      </trkpt>
      <trkpt lat="45.25384" lon="4.45754">
        <ele>1038</ele>
        <time>2021-03-20T11:25:48Z</time>
      </trkpt>
      <trkpt lat="45.25401" lon="4.4577">
        <ele>1039</ele>
        <time>2021-03-20T11:25:53Z</time>
      </trkpt>
      <trkpt lat="45.25427" lon="4.45789">
        <ele>1041</ele>
        <time>2021-03-20T11:25:59Z</time>
      </trkpt>
      <trkpt lat="45.25448" lon="4.45797">
        <ele>1045</ele>
        <time>2021-03-20T11:26:05Z</time>
      </trkpt>
      <trkpt lat="45.2543" lon="4.45753">
        <ele>1049</ele>
        <time>2021-03-20T11:26:13Z</time>
      </trkpt>
      <trkpt lat="45.25427" lon="4.45733">
        <ele>1050</ele>
        <time>2021-03-20T11:26:16Z</time>
      </trkpt>
      <trkpt lat="45.25445" lon="4.45754">
        <ele>1054</ele>
        <time>2021-03-20T11:26:22Z</time>
      </trkpt>
      <trkpt lat="45.25458" lon="4.45766">
        <ele>1055</ele>
        <time>2021-03-20T11:26:25Z</time>
      </trkpt>
      <trkpt lat="45.25511" lon="4.45789">
        <ele>1065</ele>
        <time>2021-03-20T11:26:38Z</time>
      </trkpt>
      <trkpt lat="45.25575" lon="4.45813">
        <ele>1075</ele>
        <time>2021-03-20T11:26:54Z</time>
      </trkpt>
      <trkpt lat="45.25591" lon="4.4583">
        <ele>1076</ele>
        <time>2021-03-20T11:26:58Z</time>
      </trkpt>
      <trkpt lat="45.25623" lon="4.45896">
        <ele>1068</ele>
        <time>2021-03-20T11:27:12Z</time>
      </trkpt>
      <trkpt lat="45.25656" lon="4.45937">
        <ele>1069</ele>
        <time>2021-03-20T11:27:22Z</time>
      </trkpt>
      <trkpt lat="45.25663" lon="4.45943">
        <ele>1070</ele>
        <time>2021-03-20T11:27:24Z</time>
      </trkpt>
      <trkpt lat="45.25669" lon="4.45943">
        <ele>1071</ele>
        <time>2021-03-20T11:27:25Z</time>
      </trkpt>
      <trkpt lat="45.25673" lon="4.45939">
        <ele>1073</ele>
        <time>2021-03-20T11:27:26Z</time>
      </trkpt>
      <trkpt lat="45.25674" lon="4.45933">
        <ele>1074</ele>
        <time>2021-03-20T11:27:27Z</time>
      </trkpt>
      <trkpt lat="45.25673" lon="4.45927">
        <ele>1075</ele>
        <time>2021-03-20T11:27:28Z</time>
      </trkpt>
      <trkpt lat="45.2567" lon="4.45921">
        <ele>1075</ele>
        <time>2021-03-20T11:27:29Z</time>
      </trkpt>
      <trkpt lat="45.25654" lon="4.45906">
        <ele>1073</ele>
        <time>2021-03-20T11:27:34Z</time>
      </trkpt>
      <trkpt lat="45.25646" lon="4.45894">
        <ele>1073</ele>
        <time>2021-03-20T11:27:37Z</time>
      </trkpt>
      <trkpt lat="45.25641" lon="4.45881">
        <ele>1074</ele>
        <time>2021-03-20T11:27:39Z</time>
      </trkpt>
      <trkpt lat="45.25631" lon="4.45839">
        <ele>1078</ele>
        <time>2021-03-20T11:27:46Z</time>
      </trkpt>
      <trkpt lat="45.25623" lon="4.45789">
        <ele>1082</ele>
        <time>2021-03-20T11:27:55Z</time>
      </trkpt>
      <trkpt lat="45.25617" lon="4.45771">
        <ele>1083</ele>
        <time>2021-03-20T11:27:58Z</time>
      </trkpt>
      <trkpt lat="45.25598" lon="4.45733">
        <ele>1085</ele>
        <time>2021-03-20T11:28:06Z</time>
      </trkpt>
      <trkpt lat="45.25562" lon="4.45686">
        <ele>1082</ele>
        <time>2021-03-20T11:28:17Z</time>
      </trkpt>
      <trkpt lat="45.25559" lon="4.45674">
        <ele>1082</ele>
        <time>2021-03-20T11:28:19Z</time>
      </trkpt>
      <trkpt lat="45.25558" lon="4.45662">
        <ele>1081</ele>
        <time>2021-03-20T11:28:21Z</time>
      </trkpt>
      <trkpt lat="45.25559" lon="4.45652">
        <ele>1080</ele>
        <time>2021-03-20T11:28:23Z</time>
      </trkpt>
      <trkpt lat="45.25571" lon="4.45635">
        <ele>1080</ele>
        <time>2021-03-20T11:28:27Z</time>
      </trkpt>
      <trkpt lat="45.25579" lon="4.45629">
        <ele>1080</ele>
        <time>2021-03-20T11:28:29Z</time>
      </trkpt>
      <trkpt lat="45.25591" lon="4.45626">
        <ele>1081</ele>
        <time>2021-03-20T11:28:32Z</time>
      </trkpt>
      <trkpt lat="45.25645" lon="4.45624">
        <ele>1084</ele>
        <time>2021-03-20T11:28:44Z</time>
      </trkpt>
      <trkpt lat="45.25664" lon="4.45619">
        <ele>1085</ele>
        <time>2021-03-20T11:28:49Z</time>
      </trkpt>
      <trkpt lat="45.25717" lon="4.45593">
        <ele>1089</ele>
        <time>2021-03-20T11:29:02Z</time>
      </trkpt>
      <trkpt lat="45.25778" lon="4.45576">
        <ele>1095</ele>
        <time>2021-03-20T11:29:17Z</time>
      </trkpt>
      <trkpt lat="45.25792" lon="4.45568">
        <ele>1096</ele>
        <time>2021-03-20T11:29:20Z</time>
      </trkpt>
      <trkpt lat="45.2581" lon="4.45553">
        <ele>1097</ele>
        <time>2021-03-20T11:29:25Z</time>
      </trkpt>
      <trkpt lat="45.25833" lon="4.4553">
        <ele>1099</ele>
        <time>2021-03-20T11:29:32Z</time>
      </trkpt>
      <trkpt lat="45.2591" lon="4.45437">
        <ele>1108</ele>
        <time>2021-03-20T11:29:55Z</time>
      </trkpt>
      <trkpt lat="45.25928" lon="4.45413">
        <ele>1109</ele>
        <time>2021-03-20T11:30:01Z</time>
      </trkpt>
      <trkpt lat="45.2599" lon="4.4532">
        <ele>1108</ele>
        <time>2021-03-20T11:30:22Z</time>
      </trkpt>
      <trkpt lat="45.26032" lon="4.45264">
        <ele>1111</ele>
        <time>2021-03-20T11:30:35Z</time>
      </trkpt>
      <trkpt lat="45.26044" lon="4.45252">
        <ele>1110</ele>
        <time>2021-03-20T11:30:39Z</time>
      </trkpt>
      <trkpt lat="45.26062" lon="4.4524">
        <ele>1110</ele>
        <time>2021-03-20T11:30:43Z</time>
      </trkpt>
      <trkpt lat="45.26122" lon="4.45211">
        <ele>1108</ele>
        <time>2021-03-20T11:30:58Z</time>
      </trkpt>
      <trkpt lat="45.26147" lon="4.45202">
        <ele>1107</ele>
        <time>2021-03-20T11:31:04Z</time>
      </trkpt>
      <trkpt lat="45.26163" lon="4.45198">
        <ele>1106</ele>
        <time>2021-03-20T11:31:08Z</time>
      </trkpt>
      <trkpt lat="45.26177" lon="4.45197">
        <ele>1104</ele>
        <time>2021-03-20T11:31:11Z</time>
      </trkpt>
      <trkpt lat="45.2619" lon="4.452">
        <ele>1102</ele>
        <time>2021-03-20T11:31:14Z</time>
      </trkpt>
      <trkpt lat="45.26204" lon="4.45205">
        <ele>1101</ele>
        <time>2021-03-20T11:31:18Z</time>
      </trkpt>
      <trkpt lat="45.26305" lon="4.45267">
        <ele>1095</ele>
        <time>2021-03-20T11:31:44Z</time>
      </trkpt>
      <trkpt lat="45.26362" lon="4.45293">
        <ele>1097</ele>
        <time>2021-03-20T11:31:57Z</time>
      </trkpt>
      <trkpt lat="45.26427" lon="4.45329">
        <ele>1100</ele>
        <time>2021-03-20T11:32:14Z</time>
      </trkpt>
      <trkpt lat="45.26439" lon="4.45339">
        <ele>1100</ele>
        <time>2021-03-20T11:32:17Z</time>
      </trkpt>
      <trkpt lat="45.26461" lon="4.45368">
        <ele>1099</ele>
        <time>2021-03-20T11:32:24Z</time>
      </trkpt>
      <trkpt lat="45.26473" lon="4.45381">
        <ele>1098</ele>
        <time>2021-03-20T11:32:28Z</time>
      </trkpt>
      <trkpt lat="45.26482" lon="4.45387">
        <ele>1097</ele>
        <time>2021-03-20T11:32:30Z</time>
      </trkpt>
      <trkpt lat="45.26492" lon="4.45391">
        <ele>1095</ele>
        <time>2021-03-20T11:32:32Z</time>
      </trkpt>
      <trkpt lat="45.26504" lon="4.45392">
        <ele>1094</ele>
        <time>2021-03-20T11:32:35Z</time>
      </trkpt>
      <trkpt lat="45.26515" lon="4.4539">
        <ele>1094</ele>
        <time>2021-03-20T11:32:38Z</time>
      </trkpt>
      <trkpt lat="45.26536" lon="4.45378">
        <ele>1093</ele>
        <time>2021-03-20T11:32:43Z</time>
      </trkpt>
      <trkpt lat="45.26556" lon="4.45356">
        <ele>1091</ele>
        <time>2021-03-20T11:32:49Z</time>
      </trkpt>
      <trkpt lat="45.2679" lon="4.45005">
        <ele>1072</ele>
        <time>2021-03-20T11:34:08Z</time>
      </trkpt>
      <trkpt lat="45.26805" lon="4.44987">
        <ele>1072</ele>
        <time>2021-03-20T11:34:13Z</time>
      </trkpt>
      <trkpt lat="45.26823" lon="4.44971">
        <ele>1072</ele>
        <time>2021-03-20T11:34:18Z</time>
      </trkpt>
      <trkpt lat="45.26863" lon="4.4494">
        <ele>1069</ele>
        <time>2021-03-20T11:34:29Z</time>
      </trkpt>
      <trkpt lat="45.26879" lon="4.44933">
        <ele>1068</ele>
        <time>2021-03-20T11:34:32Z</time>
      </trkpt>
      <trkpt lat="45.26887" lon="4.44933">
        <ele>1067</ele>
        <time>2021-03-20T11:34:34Z</time>
      </trkpt>
      <trkpt lat="45.26902" lon="4.44937">
        <ele>1067</ele>
        <time>2021-03-20T11:34:38Z</time>
      </trkpt>
      <trkpt lat="45.2691" lon="4.44944">
        <ele>1066</ele>
        <time>2021-03-20T11:34:40Z</time>
      </trkpt>
      <trkpt lat="45.26919" lon="4.44954">
        <ele>1066</ele>
        <time>2021-03-20T11:34:43Z</time>
      </trkpt>
      <trkpt lat="45.27022" lon="4.45101">
        <ele>1063</ele>
        <time>2021-03-20T11:35:17Z</time>
      </trkpt>
      <trkpt lat="45.27034" lon="4.45115">
        <ele>1064</ele>
        <time>2021-03-20T11:35:20Z</time>
      </trkpt>
      <trkpt lat="45.27053" lon="4.45127">
        <ele>1063</ele>
        <time>2021-03-20T11:35:25Z</time>
      </trkpt>
      <trkpt lat="45.2706" lon="4.45139">
        <ele>1064</ele>
        <time>2021-03-20T11:35:28Z</time>
      </trkpt>
      <trkpt lat="45.27069" lon="4.45168">
        <ele>1065</ele>
        <time>2021-03-20T11:35:33Z</time>
      </trkpt>
      <trkpt lat="45.27084" lon="4.45187">
        <ele>1066</ele>
        <time>2021-03-20T11:35:38Z</time>
      </trkpt>
      <trkpt lat="45.27122" lon="4.45222">
        <ele>1068</ele>
        <time>2021-03-20T11:35:48Z</time>
      </trkpt>
      <trkpt lat="45.27205" lon="4.45271">
        <ele>1069</ele>
        <time>2021-03-20T11:36:09Z</time>
      </trkpt>
      <trkpt lat="45.27238" lon="4.45284">
        <ele>1071</ele>
        <time>2021-03-20T11:36:17Z</time>
      </trkpt>
      <trkpt lat="45.27282" lon="4.45279">
        <ele>1072</ele>
        <time>2021-03-20T11:36:28Z</time>
      </trkpt>
      <trkpt lat="45.2734" lon="4.45268">
        <ele>1075</ele>
        <time>2021-03-20T11:36:41Z</time>
      </trkpt>
      <trkpt lat="45.27396" lon="4.45261">
        <ele>1080</ele>
        <time>2021-03-20T11:36:54Z</time>
      </trkpt>
      <trkpt lat="45.27418" lon="4.45227">
        <ele>1078</ele>
        <time>2021-03-20T11:37:02Z</time>
      </trkpt>
      <trkpt lat="45.27451" lon="4.45168">
        <ele>1075</ele>
        <time>2021-03-20T11:37:14Z</time>
      </trkpt>
      <trkpt lat="45.27508" lon="4.45131">
        <ele>1077</ele>
        <time>2021-03-20T11:37:29Z</time>
      </trkpt>
      <trkpt lat="45.27565" lon="4.45079">
        <ele>1078</ele>
        <time>2021-03-20T11:37:45Z</time>
      </trkpt>
      <trkpt lat="45.27613" lon="4.45043">
        <ele>1078</ele>
        <time>2021-03-20T11:37:58Z</time>
      </trkpt>
      <trkpt lat="45.27635" lon="4.45033">
        <ele>1080</ele>
        <time>2021-03-20T11:38:03Z</time>
      </trkpt>
      <trkpt lat="45.27738" lon="4.44995">
        <ele>1086</ele>
        <time>2021-03-20T11:38:28Z</time>
      </trkpt>
      <trkpt lat="45.27801" lon="4.44975">
        <ele>1089</ele>
        <time>2021-03-20T11:38:43Z</time>
      </trkpt>
      <trkpt lat="45.27826" lon="4.44965">
        <ele>1090</ele>
        <time>2021-03-20T11:38:49Z</time>
      </trkpt>
      <trkpt lat="45.27858" lon="4.44939">
        <ele>1087</ele>
        <time>2021-03-20T11:38:58Z</time>
      </trkpt>
      <trkpt lat="45.27895" lon="4.44913">
        <ele>1083</ele>
        <time>2021-03-20T11:39:07Z</time>
      </trkpt>
      <trkpt lat="45.27932" lon="4.44895">
        <ele>1082</ele>
        <time>2021-03-20T11:39:16Z</time>
      </trkpt>
      <trkpt lat="45.28115" lon="4.44829">
        <ele>1071</ele>
        <time>2021-03-20T11:40:00Z</time>
      </trkpt>
      <trkpt lat="45.28157" lon="4.44818">
        <ele>1069</ele>
        <time>2021-03-20T11:40:10Z</time>
      </trkpt>
      <trkpt lat="45.282" lon="4.44817">
        <ele>1070</ele>
        <time>2021-03-20T11:40:20Z</time>
      </trkpt>
      <trkpt lat="45.28218" lon="4.44812">
        <ele>1069</ele>
        <time>2021-03-20T11:40:25Z</time>
      </trkpt>
      <trkpt lat="45.28246" lon="4.44793">
        <ele>1067</ele>
        <time>2021-03-20T11:40:32Z</time>
      </trkpt>
      <trkpt lat="45.28327" lon="4.44751">
        <ele>1066</ele>
        <time>2021-03-20T11:40:52Z</time>
      </trkpt>
      <trkpt lat="45.2834" lon="4.4474">
        <ele>1066</ele>
        <time>2021-03-20T11:40:56Z</time>
      </trkpt>
      <trkpt lat="45.28353" lon="4.44727">
        <ele>1067</ele>
        <time>2021-03-20T11:40:59Z</time>
      </trkpt>
      <trkpt lat="45.28362" lon="4.44705">
        <ele>1066</ele>
        <time>2021-03-20T11:41:04Z</time>
      </trkpt>
      <trkpt lat="45.28365" lon="4.44688">
        <ele>1066</ele>
        <time>2021-03-20T11:41:06Z</time>
      </trkpt>
      <trkpt lat="45.28367" lon="4.44667">
        <ele>1065</ele>
        <time>2021-03-20T11:41:10Z</time>
      </trkpt>
      <trkpt lat="45.28373" lon="4.44475">
        <ele>1067</ele>
        <time>2021-03-20T11:41:41Z</time>
      </trkpt>
    </trkseg>
  </trk>
</gpx>